<?xml version="1.0" encoding="UTF-8" standalone="no" ?>
<gpx xmlns="http://www.topografix.com/GPX/1/1" creator="MapSource 6.11.6" version="1.1" xmlns:xsi="http://www.w3.org/2001/XMLSchema-instance" xsi:schemaLocation="http://www.topografix.com/GPX/1/1 http://www.topografix.com/GPX/1/1/gpx.xsd">

  <metadata>
    <link href="http://www.garmin.com">
      <text>Garmin International</text>
    </link>
    <time>2009-02-07T16:50:25Z</time>
    <bounds maxlat="50.636130" maxlon="6.503682" minlat="50.571086" minlon="6.466464"/>
  </metadata>

  <wpt lat="50.618013" lon="6.475171">
    <ele>441.367554</ele>
    <name>001</name>
    <sym>Waypoint</sym>
    <extensions>
      <gpxx:WaypointExtension xmlns:gpxx="http://www.garmin.com/xmlschemas/GpxExtensions/v3" xmlns:xsi="http://www.w3.org/2001/XMLSchema-instance" xsi:schemaLocation="http://www.garmin.com/xmlschemas/GpxExtensions/v3 http://www.garmin.com/xmlschemas/GpxExtensions/v3/GpxExtensionsv3.xsd">
        <gpxx:DisplayMode>SymbolAndName</gpxx:DisplayMode>
      </gpxx:WaypointExtension>
    </extensions>
  </wpt>

  <wpt lat="50.593450" lon="6.493344">
    <ele>513.946655</ele>
    <name>002</name>
    <sym>Waypoint</sym>
    <extensions>
      <gpxx:WaypointExtension xmlns:gpxx="http://www.garmin.com/xmlschemas/GpxExtensions/v3" xmlns:xsi="http://www.w3.org/2001/XMLSchema-instance" xsi:schemaLocation="http://www.garmin.com/xmlschemas/GpxExtensions/v3 http://www.garmin.com/xmlschemas/GpxExtensions/v3/GpxExtensionsv3.xsd">
        <gpxx:DisplayMode>SymbolAndName</gpxx:DisplayMode>
      </gpxx:WaypointExtension>
    </extensions>
  </wpt>

  <wpt lat="50.636086" lon="6.473772">
    <ele>220.000000</ele>
    <name>Start</name>
    <sym>Waypoint</sym>
    <extensions>
      <gpxx:WaypointExtension xmlns:gpxx="http://www.garmin.com/xmlschemas/GpxExtensions/v3" xmlns:xsi="http://www.w3.org/2001/XMLSchema-instance" xsi:schemaLocation="http://www.garmin.com/xmlschemas/GpxExtensions/v3 http://www.garmin.com/xmlschemas/GpxExtensions/v3/GpxExtensionsv3.xsd">
        <gpxx:DisplayMode>SymbolAndName</gpxx:DisplayMode>
      </gpxx:WaypointExtension>
    </extensions>
  </wpt>

  <wpt lat="50.588345" lon="6.496368">
    <ele>519.000000</ele>
    <name>Turm</name>
    <sym>Waypoint</sym>
    <extensions>
      <gpxx:WaypointExtension xmlns:gpxx="http://www.garmin.com/xmlschemas/GpxExtensions/v3" xmlns:xsi="http://www.w3.org/2001/XMLSchema-instance" xsi:schemaLocation="http://www.garmin.com/xmlschemas/GpxExtensions/v3 http://www.garmin.com/xmlschemas/GpxExtensions/v3/GpxExtensionsv3.xsd">
        <gpxx:DisplayMode>SymbolAndName</gpxx:DisplayMode>
      </gpxx:WaypointExtension>
    </extensions>
  </wpt>

  <trk>
    <name>Heimbach-Gemünd</name>
    <extensions>
      <gpxx:TrackExtension xmlns:gpxx="http://www.garmin.com/xmlschemas/GpxExtensions/v3" xmlns:xsi="http://www.w3.org/2001/XMLSchema-instance" xsi:schemaLocation="http://www.garmin.com/xmlschemas/GpxExtensions/v3 http://www.garmin.com/xmlschemas/GpxExtensions/v3/GpxExtensionsv3.xsd">
        <gpxx:DisplayColor>White</gpxx:DisplayColor>
      </gpxx:TrackExtension>
    </extensions>
    <trkseg>
      <trkpt lat="50.636082" lon="6.473703">
        <ele>347.654000</ele>
        <time>2009-02-07T17:54:31Z</time>
      </trkpt>
      <trkpt lat="50.636130" lon="6.473557">
        <ele>347.654000</ele>
        <time>2009-02-07T17:54:42Z</time>
      </trkpt>
      <trkpt lat="50.636124" lon="6.473521">
        <ele>339.963000</ele>
        <time>2009-02-07T17:54:44Z</time>
      </trkpt>
      <trkpt lat="50.636115" lon="6.473531">
        <ele>336.599000</ele>
        <time>2009-02-07T17:54:45Z</time>
      </trkpt>
      <trkpt lat="50.636108" lon="6.473534">
        <ele>330.831000</ele>
        <time>2009-02-07T17:54:46Z</time>
      </trkpt>
      <trkpt lat="50.636089" lon="6.473571">
        <ele>324.582000</ele>
        <time>2009-02-07T17:54:49Z</time>
      </trkpt>
      <trkpt lat="50.636077" lon="6.473570">
        <ele>320.737000</ele>
        <time>2009-02-07T17:54:51Z</time>
      </trkpt>
      <trkpt lat="50.636067" lon="6.473567">
        <ele>317.853000</ele>
        <time>2009-02-07T17:54:52Z</time>
      </trkpt>
      <trkpt lat="50.636055" lon="6.473556">
        <ele>314.488000</ele>
        <time>2009-02-07T17:54:53Z</time>
      </trkpt>
      <trkpt lat="50.636049" lon="6.473566">
        <ele>310.643000</ele>
        <time>2009-02-07T17:54:54Z</time>
      </trkpt>
      <trkpt lat="50.636019" lon="6.473555">
        <ele>303.914000</ele>
        <time>2009-02-07T17:54:57Z</time>
      </trkpt>
      <trkpt lat="50.636011" lon="6.473562">
        <ele>299.107000</ele>
        <time>2009-02-07T17:54:58Z</time>
      </trkpt>
      <trkpt lat="50.635992" lon="6.473573">
        <ele>293.339000</ele>
        <time>2009-02-07T17:55:00Z</time>
      </trkpt>
      <trkpt lat="50.635970" lon="6.473579">
        <ele>290.456000</ele>
        <time>2009-02-07T17:55:03Z</time>
      </trkpt>
      <trkpt lat="50.635941" lon="6.473598">
        <ele>284.688000</ele>
        <time>2009-02-07T17:55:06Z</time>
      </trkpt>
      <trkpt lat="50.635932" lon="6.473609">
        <ele>281.804000</ele>
        <time>2009-02-07T17:55:07Z</time>
      </trkpt>
      <trkpt lat="50.635919" lon="6.473615">
        <ele>278.920000</ele>
        <time>2009-02-07T17:55:09Z</time>
      </trkpt>
      <trkpt lat="50.635894" lon="6.473624">
        <ele>273.632000</ele>
        <time>2009-02-07T17:55:12Z</time>
      </trkpt>
      <trkpt lat="50.635887" lon="6.473639">
        <ele>269.307000</ele>
        <time>2009-02-07T17:55:13Z</time>
      </trkpt>
      <trkpt lat="50.635883" lon="6.473661">
        <ele>264.981000</ele>
        <time>2009-02-07T17:55:14Z</time>
      </trkpt>
      <trkpt lat="50.635881" lon="6.473680">
        <ele>261.135000</ele>
        <time>2009-02-07T17:55:16Z</time>
      </trkpt>
      <trkpt lat="50.635854" lon="6.473683">
        <ele>257.290000</ele>
        <time>2009-02-07T17:55:19Z</time>
      </trkpt>
      <trkpt lat="50.635838" lon="6.473696">
        <ele>252.964000</ele>
        <time>2009-02-07T17:55:20Z</time>
      </trkpt>
      <trkpt lat="50.635805" lon="6.473710">
        <ele>248.638000</ele>
        <time>2009-02-07T17:55:24Z</time>
      </trkpt>
      <trkpt lat="50.635775" lon="6.473715">
        <ele>244.793000</ele>
        <time>2009-02-07T17:55:27Z</time>
      </trkpt>
      <trkpt lat="50.635755" lon="6.473708">
        <ele>241.428000</ele>
        <time>2009-02-07T17:55:29Z</time>
      </trkpt>
      <trkpt lat="50.635700" lon="6.473676">
        <ele>238.064000</ele>
        <time>2009-02-07T17:55:36Z</time>
      </trkpt>
      <trkpt lat="50.635668" lon="6.473656">
        <ele>234.218000</ele>
        <time>2009-02-07T17:55:39Z</time>
      </trkpt>
      <trkpt lat="50.635641" lon="6.473680">
        <ele>230.854000</ele>
        <time>2009-02-07T17:55:43Z</time>
      </trkpt>
      <trkpt lat="50.635578" lon="6.473688">
        <ele>227.489000</ele>
        <time>2009-02-07T17:55:49Z</time>
      </trkpt>
      <trkpt lat="50.635267" lon="6.473791">
        <ele>227.970000</ele>
        <time>2009-02-07T17:56:23Z</time>
      </trkpt>
      <trkpt lat="50.635141" lon="6.473913">
        <ele>227.489000</ele>
        <time>2009-02-07T17:56:39Z</time>
      </trkpt>
      <trkpt lat="50.635083" lon="6.473935">
        <ele>227.489000</ele>
        <time>2009-02-07T17:56:45Z</time>
      </trkpt>
      <trkpt lat="50.635038" lon="6.474043">
        <ele>227.970000</ele>
        <time>2009-02-07T17:56:54Z</time>
      </trkpt>
      <trkpt lat="50.634709" lon="6.474172">
        <ele>226.528000</ele>
        <time>2009-02-07T17:57:30Z</time>
      </trkpt>
      <trkpt lat="50.634408" lon="6.474156">
        <ele>227.970000</ele>
        <time>2009-02-07T17:58:02Z</time>
      </trkpt>
      <trkpt lat="50.634286" lon="6.474151">
        <ele>227.489000</ele>
        <time>2009-02-07T17:58:15Z</time>
      </trkpt>
      <trkpt lat="50.634152" lon="6.474228">
        <ele>227.009000</ele>
        <time>2009-02-07T17:58:30Z</time>
      </trkpt>
      <trkpt lat="50.634070" lon="6.474389">
        <ele>227.009000</ele>
        <time>2009-02-07T17:58:44Z</time>
      </trkpt>
      <trkpt lat="50.634001" lon="6.474520">
        <ele>227.489000</ele>
        <time>2009-02-07T17:58:56Z</time>
      </trkpt>
      <trkpt lat="50.633981" lon="6.474521">
        <ele>216.434000</ele>
        <time>2009-02-07T17:58:58Z</time>
      </trkpt>
      <trkpt lat="50.633973" lon="6.474532">
        <ele>230.373000</ele>
        <time>2009-02-07T17:58:59Z</time>
      </trkpt>
      <trkpt lat="50.633967" lon="6.474542">
        <ele>227.489000</ele>
        <time>2009-02-07T17:59:00Z</time>
      </trkpt>
      <trkpt lat="50.633967" lon="6.474607">
        <ele>233.257000</ele>
        <time>2009-02-07T17:59:04Z</time>
      </trkpt>
      <trkpt lat="50.633962" lon="6.474586">
        <ele>228.450000</ele>
        <time>2009-02-07T17:59:06Z</time>
      </trkpt>
      <trkpt lat="50.633962" lon="6.474575">
        <ele>228.450000</ele>
        <time>2009-02-07T17:59:07Z</time>
      </trkpt>
      <trkpt lat="50.633941" lon="6.474653">
        <ele>228.450000</ele>
        <time>2009-02-07T17:59:12Z</time>
      </trkpt>
      <trkpt lat="50.633846" lon="6.474708">
        <ele>227.970000</ele>
        <time>2009-02-07T17:59:23Z</time>
      </trkpt>
      <trkpt lat="50.633814" lon="6.474760">
        <ele>229.412000</ele>
        <time>2009-02-07T17:59:28Z</time>
      </trkpt>
      <trkpt lat="50.633755" lon="6.474819">
        <ele>230.854000</ele>
        <time>2009-02-07T17:59:35Z</time>
      </trkpt>
      <trkpt lat="50.633747" lon="6.475042">
        <ele>230.854000</ele>
        <time>2009-02-07T17:59:50Z</time>
      </trkpt>
      <trkpt lat="50.633755" lon="6.475070">
        <ele>231.334000</ele>
        <time>2009-02-07T17:59:52Z</time>
      </trkpt>
      <trkpt lat="50.633688" lon="6.475193">
        <ele>228.450000</ele>
        <time>2009-02-07T18:00:03Z</time>
      </trkpt>
      <trkpt lat="50.633684" lon="6.475213">
        <ele>228.450000</ele>
        <time>2009-02-07T18:00:05Z</time>
      </trkpt>
      <trkpt lat="50.633643" lon="6.475350">
        <ele>229.892000</ele>
        <time>2009-02-07T18:00:15Z</time>
      </trkpt>
      <trkpt lat="50.633575" lon="6.475571">
        <ele>227.970000</ele>
        <time>2009-02-07T18:00:32Z</time>
      </trkpt>
      <trkpt lat="50.633520" lon="6.475753">
        <ele>228.450000</ele>
        <time>2009-02-07T18:00:45Z</time>
      </trkpt>
      <trkpt lat="50.633539" lon="6.476092">
        <ele>228.931000</ele>
        <time>2009-02-07T18:01:08Z</time>
      </trkpt>
      <trkpt lat="50.633560" lon="6.476236">
        <ele>229.412000</ele>
        <time>2009-02-07T18:01:18Z</time>
      </trkpt>
      <trkpt lat="50.633538" lon="6.476249">
        <ele>227.009000</ele>
        <time>2009-02-07T18:01:21Z</time>
      </trkpt>
      <trkpt lat="50.633092" lon="6.478281">
        <ele>102.518000</ele>
        <time>2009-02-07T18:03:46Z</time>
      </trkpt>
      <trkpt lat="50.633189" lon="6.478570">
        <ele>104.440000</ele>
        <time>2009-02-07T18:04:08Z</time>
      </trkpt>
      <trkpt lat="50.633114" lon="6.478986">
        <ele>103.479000</ele>
        <time>2009-02-07T18:04:37Z</time>
      </trkpt>
      <trkpt lat="50.633060" lon="6.479215">
        <ele>104.921000</ele>
        <time>2009-02-07T18:04:54Z</time>
      </trkpt>
      <trkpt lat="50.632900" lon="6.479583">
        <ele>106.363000</ele>
        <time>2009-02-07T18:05:24Z</time>
      </trkpt>
      <trkpt lat="50.632840" lon="6.479646">
        <ele>105.882000</ele>
        <time>2009-02-07T18:05:31Z</time>
      </trkpt>
      <trkpt lat="50.632681" lon="6.479988">
        <ele>105.882000</ele>
        <time>2009-02-07T18:06:00Z</time>
      </trkpt>
      <trkpt lat="50.632572" lon="6.480063">
        <ele>106.844000</ele>
        <time>2009-02-07T18:06:13Z</time>
      </trkpt>
      <trkpt lat="50.632516" lon="6.480115">
        <ele>106.844000</ele>
        <time>2009-02-07T18:06:20Z</time>
      </trkpt>
      <trkpt lat="50.632302" lon="6.480527">
        <ele>106.844000</ele>
        <time>2009-02-07T18:06:55Z</time>
      </trkpt>
      <trkpt lat="50.632162" lon="6.480674">
        <ele>106.363000</ele>
        <time>2009-02-07T18:07:13Z</time>
      </trkpt>
      <trkpt lat="50.632133" lon="6.480690">
        <ele>106.363000</ele>
        <time>2009-02-07T18:07:17Z</time>
      </trkpt>
      <trkpt lat="50.631779" lon="6.480694">
        <ele>105.882000</ele>
        <time>2009-02-07T18:07:54Z</time>
      </trkpt>
      <trkpt lat="50.631557" lon="6.480527">
        <ele>107.805000</ele>
        <time>2009-02-07T18:08:20Z</time>
      </trkpt>
      <trkpt lat="50.630680" lon="6.480927">
        <ele>112.612000</ele>
        <time>2009-02-07T18:09:58Z</time>
      </trkpt>
      <trkpt lat="50.630684" lon="6.480920">
        <ele>111.650000</ele>
        <time>2009-02-07T18:09:58Z</time>
      </trkpt>
      <trkpt lat="50.630594" lon="6.480899">
        <ele>113.092000</ele>
        <time>2009-02-07T18:10:08Z</time>
      </trkpt>
      <trkpt lat="50.630468" lon="6.480910">
        <ele>113.573000</ele>
        <time>2009-02-07T18:10:21Z</time>
      </trkpt>
      <trkpt lat="50.630173" lon="6.480849">
        <ele>116.457000</ele>
        <time>2009-02-07T18:10:53Z</time>
      </trkpt>
      <trkpt lat="50.629914" lon="6.480776">
        <ele>119.821000</ele>
        <time>2009-02-07T18:11:21Z</time>
      </trkpt>
      <trkpt lat="50.629309" lon="6.480527">
        <ele>122.705000</ele>
        <time>2009-02-07T18:12:28Z</time>
      </trkpt>
      <trkpt lat="50.628922" lon="6.480256">
        <ele>126.070000</ele>
        <time>2009-02-07T18:13:13Z</time>
      </trkpt>
      <trkpt lat="50.628692" lon="6.480032">
        <ele>126.551000</ele>
        <time>2009-02-07T18:13:41Z</time>
      </trkpt>
      <trkpt lat="50.628666" lon="6.479993">
        <ele>127.031000</ele>
        <time>2009-02-07T18:13:45Z</time>
      </trkpt>
      <trkpt lat="50.628554" lon="6.479785">
        <ele>128.954000</ele>
        <time>2009-02-07T18:14:04Z</time>
      </trkpt>
      <trkpt lat="50.628549" lon="6.479633">
        <ele>128.954000</ele>
        <time>2009-02-07T18:14:14Z</time>
      </trkpt>
      <trkpt lat="50.628530" lon="6.479398">
        <ele>129.435000</ele>
        <time>2009-02-07T18:14:30Z</time>
      </trkpt>
      <trkpt lat="50.628549" lon="6.479221">
        <ele>129.915000</ele>
        <time>2009-02-07T18:14:42Z</time>
      </trkpt>
      <trkpt lat="50.628495" lon="6.479219">
        <ele>132.319000</ele>
        <time>2009-02-07T18:14:48Z</time>
      </trkpt>
      <trkpt lat="50.628422" lon="6.479172">
        <ele>133.280000</ele>
        <time>2009-02-07T18:14:56Z</time>
      </trkpt>
      <trkpt lat="50.628183" lon="6.478732">
        <ele>133.280000</ele>
        <time>2009-02-07T18:15:35Z</time>
      </trkpt>
      <trkpt lat="50.627998" lon="6.478396">
        <ele>134.722000</ele>
        <time>2009-02-07T18:16:05Z</time>
      </trkpt>
      <trkpt lat="50.627910" lon="6.478185">
        <ele>135.203000</ele>
        <time>2009-02-07T18:16:22Z</time>
      </trkpt>
      <trkpt lat="50.627836" lon="6.478054">
        <ele>134.722000</ele>
        <time>2009-02-07T18:16:34Z</time>
      </trkpt>
      <trkpt lat="50.627815" lon="6.477760">
        <ele>135.683000</ele>
        <time>2009-02-07T18:16:54Z</time>
      </trkpt>
      <trkpt lat="50.627817" lon="6.477558">
        <ele>137.125000</ele>
        <time>2009-02-07T18:17:08Z</time>
      </trkpt>
      <trkpt lat="50.627786" lon="6.477176">
        <ele>138.087000</ele>
        <time>2009-02-07T18:17:34Z</time>
      </trkpt>
      <trkpt lat="50.627768" lon="6.476838">
        <ele>138.567000</ele>
        <time>2009-02-07T18:17:57Z</time>
      </trkpt>
      <trkpt lat="50.627751" lon="6.476421">
        <ele>140.490000</ele>
        <time>2009-02-07T18:18:25Z</time>
      </trkpt>
      <trkpt lat="50.627778" lon="6.476110">
        <ele>141.451000</ele>
        <time>2009-02-07T18:18:46Z</time>
      </trkpt>
      <trkpt lat="50.627592" lon="6.475953">
        <ele>142.412000</ele>
        <time>2009-02-07T18:19:08Z</time>
      </trkpt>
      <trkpt lat="50.627562" lon="6.475892">
        <ele>141.932000</ele>
        <time>2009-02-07T18:19:14Z</time>
      </trkpt>
      <trkpt lat="50.627578" lon="6.475837">
        <ele>142.893000</ele>
        <time>2009-02-07T18:19:18Z</time>
      </trkpt>
      <trkpt lat="50.627608" lon="6.475715">
        <ele>142.412000</ele>
        <time>2009-02-07T18:19:27Z</time>
      </trkpt>
      <trkpt lat="50.627612" lon="6.475634">
        <ele>142.893000</ele>
        <time>2009-02-07T18:19:32Z</time>
      </trkpt>
      <trkpt lat="50.627573" lon="6.475452">
        <ele>143.374000</ele>
        <time>2009-02-07T18:19:45Z</time>
      </trkpt>
      <trkpt lat="50.627548" lon="6.475368">
        <ele>143.374000</ele>
        <time>2009-02-07T18:19:51Z</time>
      </trkpt>
      <trkpt lat="50.627530" lon="6.475147">
        <ele>143.854000</ele>
        <time>2009-02-07T18:20:06Z</time>
      </trkpt>
      <trkpt lat="50.627507" lon="6.474858">
        <ele>143.854000</ele>
        <time>2009-02-07T18:20:26Z</time>
      </trkpt>
      <trkpt lat="50.627499" lon="6.474633">
        <ele>144.816000</ele>
        <time>2009-02-07T18:20:41Z</time>
      </trkpt>
      <trkpt lat="50.627493" lon="6.474488">
        <ele>144.816000</ele>
        <time>2009-02-07T18:20:51Z</time>
      </trkpt>
      <trkpt lat="50.627469" lon="6.474210">
        <ele>144.816000</ele>
        <time>2009-02-07T18:21:10Z</time>
      </trkpt>
      <trkpt lat="50.627527" lon="6.473916">
        <ele>144.816000</ele>
        <time>2009-02-07T18:21:31Z</time>
      </trkpt>
      <trkpt lat="50.627531" lon="6.473764">
        <ele>145.777000</ele>
        <time>2009-02-07T18:21:41Z</time>
      </trkpt>
      <trkpt lat="50.627509" lon="6.473674">
        <ele>145.296000</ele>
        <time>2009-02-07T18:21:47Z</time>
      </trkpt>
      <trkpt lat="50.627528" lon="6.473343">
        <ele>146.738000</ele>
        <time>2009-02-07T18:22:10Z</time>
      </trkpt>
      <trkpt lat="50.627530" lon="6.473227">
        <ele>147.700000</ele>
        <time>2009-02-07T18:22:18Z</time>
      </trkpt>
      <trkpt lat="50.627563" lon="6.473128">
        <ele>148.661000</ele>
        <time>2009-02-07T18:22:25Z</time>
      </trkpt>
      <trkpt lat="50.627586" lon="6.473088">
        <ele>149.142000</ele>
        <time>2009-02-07T18:22:29Z</time>
      </trkpt>
      <trkpt lat="50.627582" lon="6.472758">
        <ele>150.584000</ele>
        <time>2009-02-07T18:22:51Z</time>
      </trkpt>
      <trkpt lat="50.627579" lon="6.472582">
        <ele>152.506000</ele>
        <time>2009-02-07T18:23:03Z</time>
      </trkpt>
      <trkpt lat="50.627468" lon="6.472263">
        <ele>154.429000</ele>
        <time>2009-02-07T18:23:28Z</time>
      </trkpt>
      <trkpt lat="50.627462" lon="6.472198">
        <ele>154.429000</ele>
        <time>2009-02-07T18:23:32Z</time>
      </trkpt>
      <trkpt lat="50.627406" lon="6.471932">
        <ele>156.352000</ele>
        <time>2009-02-07T18:23:51Z</time>
      </trkpt>
      <trkpt lat="50.627389" lon="6.471846">
        <ele>157.313000</ele>
        <time>2009-02-07T18:23:57Z</time>
      </trkpt>
      <trkpt lat="50.627384" lon="6.471812">
        <ele>157.794000</ele>
        <time>2009-02-07T18:23:59Z</time>
      </trkpt>
      <trkpt lat="50.627362" lon="6.471654">
        <ele>158.755000</ele>
        <time>2009-02-07T18:24:10Z</time>
      </trkpt>
      <trkpt lat="50.627355" lon="6.471575">
        <ele>160.197000</ele>
        <time>2009-02-07T18:24:16Z</time>
      </trkpt>
      <trkpt lat="50.627295" lon="6.471465">
        <ele>160.197000</ele>
        <time>2009-02-07T18:24:25Z</time>
      </trkpt>
      <trkpt lat="50.627268" lon="6.471316">
        <ele>161.639000</ele>
        <time>2009-02-07T18:24:36Z</time>
      </trkpt>
      <trkpt lat="50.627255" lon="6.471227">
        <ele>162.600000</ele>
        <time>2009-02-07T18:24:42Z</time>
      </trkpt>
      <trkpt lat="50.627289" lon="6.471050">
        <ele>164.042000</ele>
        <time>2009-02-07T18:24:55Z</time>
      </trkpt>
      <trkpt lat="50.627229" lon="6.470797">
        <ele>166.445000</ele>
        <time>2009-02-07T18:25:13Z</time>
      </trkpt>
      <trkpt lat="50.627104" lon="6.470590">
        <ele>169.329000</ele>
        <time>2009-02-07T18:25:32Z</time>
      </trkpt>
      <trkpt lat="50.626959" lon="6.470262">
        <ele>170.771000</ele>
        <time>2009-02-07T18:25:59Z</time>
      </trkpt>
      <trkpt lat="50.626904" lon="6.469973">
        <ele>172.213000</ele>
        <time>2009-02-07T18:26:19Z</time>
      </trkpt>
      <trkpt lat="50.626808" lon="6.469704">
        <ele>173.175000</ele>
        <time>2009-02-07T18:26:40Z</time>
      </trkpt>
      <trkpt lat="50.626705" lon="6.469473">
        <ele>175.097000</ele>
        <time>2009-02-07T18:26:59Z</time>
      </trkpt>
      <trkpt lat="50.626678" lon="6.469402">
        <ele>176.539000</ele>
        <time>2009-02-07T18:27:05Z</time>
      </trkpt>
      <trkpt lat="50.626352" lon="6.469313">
        <ele>177.501000</ele>
        <time>2009-02-07T18:27:40Z</time>
      </trkpt>
      <trkpt lat="50.626384" lon="6.469076">
        <ele>178.943000</ele>
        <time>2009-02-07T18:27:57Z</time>
      </trkpt>
      <trkpt lat="50.626238" lon="6.468843">
        <ele>181.346000</ele>
        <time>2009-02-07T18:28:19Z</time>
      </trkpt>
      <trkpt lat="50.626122" lon="6.468798">
        <ele>183.749000</ele>
        <time>2009-02-07T18:28:31Z</time>
      </trkpt>
      <trkpt lat="50.625864" lon="6.468544">
        <ele>187.114000</ele>
        <time>2009-02-07T18:29:04Z</time>
      </trkpt>
      <trkpt lat="50.625791" lon="6.468536">
        <ele>189.517000</ele>
        <time>2009-02-07T18:29:11Z</time>
      </trkpt>
      <trkpt lat="50.625711" lon="6.468559">
        <ele>190.959000</ele>
        <time>2009-02-07T18:29:20Z</time>
      </trkpt>
      <trkpt lat="50.625557" lon="6.468519">
        <ele>193.843000</ele>
        <time>2009-02-07T18:29:37Z</time>
      </trkpt>
      <trkpt lat="50.625329" lon="6.468496">
        <ele>196.727000</ele>
        <time>2009-02-07T18:30:01Z</time>
      </trkpt>
      <trkpt lat="50.625184" lon="6.468468">
        <ele>198.650000</ele>
        <time>2009-02-07T18:30:17Z</time>
      </trkpt>
      <trkpt lat="50.624992" lon="6.468227">
        <ele>202.014000</ele>
        <time>2009-02-07T18:30:43Z</time>
      </trkpt>
      <trkpt lat="50.624966" lon="6.468040">
        <ele>205.379000</ele>
        <time>2009-02-07T18:30:56Z</time>
      </trkpt>
      <trkpt lat="50.624716" lon="6.467871">
        <ele>208.743000</ele>
        <time>2009-02-07T18:31:25Z</time>
      </trkpt>
      <trkpt lat="50.624537" lon="6.467817">
        <ele>211.147000</ele>
        <time>2009-02-07T18:31:44Z</time>
      </trkpt>
      <trkpt lat="50.624443" lon="6.467654">
        <ele>214.511000</ele>
        <time>2009-02-07T18:31:59Z</time>
      </trkpt>
      <trkpt lat="50.624393" lon="6.467537">
        <ele>216.434000</ele>
        <time>2009-02-07T18:32:08Z</time>
      </trkpt>
      <trkpt lat="50.624265" lon="6.467324">
        <ele>219.799000</ele>
        <time>2009-02-07T18:32:28Z</time>
      </trkpt>
      <trkpt lat="50.623917" lon="6.467120">
        <ele>223.163000</ele>
        <time>2009-02-07T18:33:08Z</time>
      </trkpt>
      <trkpt lat="50.623844" lon="6.466847">
        <ele>226.528000</ele>
        <time>2009-02-07T18:33:28Z</time>
      </trkpt>
      <trkpt lat="50.623792" lon="6.466514">
        <ele>229.412000</ele>
        <time>2009-02-07T18:33:51Z</time>
      </trkpt>
      <trkpt lat="50.623578" lon="6.466653">
        <ele>233.257000</ele>
        <time>2009-02-07T18:34:15Z</time>
      </trkpt>
      <trkpt lat="50.623494" lon="6.466653">
        <ele>233.738000</ele>
        <time>2009-02-07T18:34:24Z</time>
      </trkpt>
      <trkpt lat="50.623341" lon="6.466593">
        <ele>237.102000</ele>
        <time>2009-02-07T18:34:41Z</time>
      </trkpt>
      <trkpt lat="50.623175" lon="6.466497">
        <ele>239.505000</ele>
        <time>2009-02-07T18:35:00Z</time>
      </trkpt>
      <trkpt lat="50.623038" lon="6.466526">
        <ele>242.390000</ele>
        <time>2009-02-07T18:35:15Z</time>
      </trkpt>
      <trkpt lat="50.622845" lon="6.466522">
        <ele>245.273000</ele>
        <time>2009-02-07T18:35:35Z</time>
      </trkpt>
      <trkpt lat="50.622645" lon="6.466541">
        <ele>248.158000</ele>
        <time>2009-02-07T18:35:56Z</time>
      </trkpt>
      <trkpt lat="50.622479" lon="6.466470">
        <ele>249.119000</ele>
        <time>2009-02-07T18:36:15Z</time>
      </trkpt>
      <trkpt lat="50.622288" lon="6.466464">
        <ele>252.483000</ele>
        <time>2009-02-07T18:36:35Z</time>
      </trkpt>
      <trkpt lat="50.622144" lon="6.466467">
        <ele>255.848000</ele>
        <time>2009-02-07T18:36:50Z</time>
      </trkpt>
      <trkpt lat="50.622027" lon="6.466478">
        <ele>259.213000</ele>
        <time>2009-02-07T18:37:03Z</time>
      </trkpt>
      <trkpt lat="50.621823" lon="6.466639">
        <ele>261.616000</ele>
        <time>2009-02-07T18:37:27Z</time>
      </trkpt>
      <trkpt lat="50.621723" lon="6.466706">
        <ele>263.058000</ele>
        <time>2009-02-07T18:37:39Z</time>
      </trkpt>
      <trkpt lat="50.621644" lon="6.466770">
        <ele>265.942000</ele>
        <time>2009-02-07T18:37:48Z</time>
      </trkpt>
      <trkpt lat="50.621540" lon="6.466924">
        <ele>268.826000</ele>
        <time>2009-02-07T18:38:03Z</time>
      </trkpt>
      <trkpt lat="50.621417" lon="6.466984">
        <ele>270.748000</ele>
        <time>2009-02-07T18:38:17Z</time>
      </trkpt>
      <trkpt lat="50.621281" lon="6.467040">
        <ele>274.113000</ele>
        <time>2009-02-07T18:38:32Z</time>
      </trkpt>
      <trkpt lat="50.621109" lon="6.467289">
        <ele>275.555000</ele>
        <time>2009-02-07T18:38:57Z</time>
      </trkpt>
      <trkpt lat="50.621057" lon="6.467440">
        <ele>277.958000</ele>
        <time>2009-02-07T18:39:08Z</time>
      </trkpt>
      <trkpt lat="50.621033" lon="6.467460">
        <ele>280.842000</ele>
        <time>2009-02-07T18:39:11Z</time>
      </trkpt>
      <trkpt lat="50.620891" lon="6.467679">
        <ele>283.246000</ele>
        <time>2009-02-07T18:39:33Z</time>
      </trkpt>
      <trkpt lat="50.620815" lon="6.467816">
        <ele>284.688000</ele>
        <time>2009-02-07T18:39:45Z</time>
      </trkpt>
      <trkpt lat="50.620805" lon="6.467835">
        <ele>284.688000</ele>
        <time>2009-02-07T18:39:46Z</time>
      </trkpt>
      <trkpt lat="50.620768" lon="6.467830">
        <ele>285.649000</ele>
        <time>2009-02-07T18:39:50Z</time>
      </trkpt>
      <trkpt lat="50.620751" lon="6.467904">
        <ele>287.091000</ele>
        <time>2009-02-07T18:39:56Z</time>
      </trkpt>
      <trkpt lat="50.620749" lon="6.467918">
        <ele>287.571000</ele>
        <time>2009-02-07T18:39:57Z</time>
      </trkpt>
      <trkpt lat="50.620682" lon="6.468057">
        <ele>288.533000</ele>
        <time>2009-02-07T18:40:08Z</time>
      </trkpt>
      <trkpt lat="50.620650" lon="6.468103">
        <ele>288.533000</ele>
        <time>2009-02-07T18:40:13Z</time>
      </trkpt>
      <trkpt lat="50.620506" lon="6.468234">
        <ele>290.456000</ele>
        <time>2009-02-07T18:40:31Z</time>
      </trkpt>
      <trkpt lat="50.620484" lon="6.468302">
        <ele>290.936000</ele>
        <time>2009-02-07T18:40:36Z</time>
      </trkpt>
      <trkpt lat="50.620366" lon="6.468489">
        <ele>292.378000</ele>
        <time>2009-02-07T18:40:54Z</time>
      </trkpt>
      <trkpt lat="50.620300" lon="6.468589">
        <ele>293.339000</ele>
        <time>2009-02-07T18:41:03Z</time>
      </trkpt>
      <trkpt lat="50.620187" lon="6.468903">
        <ele>296.224000</ele>
        <time>2009-02-07T18:41:28Z</time>
      </trkpt>
      <trkpt lat="50.620124" lon="6.469001">
        <ele>297.665000</ele>
        <time>2009-02-07T18:41:37Z</time>
      </trkpt>
      <trkpt lat="50.619991" lon="6.469100">
        <ele>299.588000</ele>
        <time>2009-02-07T18:41:53Z</time>
      </trkpt>
      <trkpt lat="50.619932" lon="6.469186">
        <ele>301.030000</ele>
        <time>2009-02-07T18:42:01Z</time>
      </trkpt>
      <trkpt lat="50.619794" lon="6.469258">
        <ele>304.875000</ele>
        <time>2009-02-07T18:42:17Z</time>
      </trkpt>
      <trkpt lat="50.619635" lon="6.469324">
        <ele>307.759000</ele>
        <time>2009-02-07T18:42:34Z</time>
      </trkpt>
      <trkpt lat="50.619510" lon="6.469432">
        <ele>311.124000</ele>
        <time>2009-02-07T18:42:50Z</time>
      </trkpt>
      <trkpt lat="50.619307" lon="6.469435">
        <ele>314.969000</ele>
        <time>2009-02-07T18:43:11Z</time>
      </trkpt>
      <trkpt lat="50.619278" lon="6.469459">
        <ele>315.450000</ele>
        <time>2009-02-07T18:43:15Z</time>
      </trkpt>
      <trkpt lat="50.619164" lon="6.469519">
        <ele>319.295000</ele>
        <time>2009-02-07T18:43:27Z</time>
      </trkpt>
      <trkpt lat="50.619103" lon="6.469537">
        <ele>320.256000</ele>
        <time>2009-02-07T18:43:34Z</time>
      </trkpt>
      <trkpt lat="50.619038" lon="6.469850">
        <ele>320.256000</ele>
        <time>2009-02-07T18:43:56Z</time>
      </trkpt>
      <trkpt lat="50.618851" lon="6.469909">
        <ele>323.621000</ele>
        <time>2009-02-07T18:44:17Z</time>
      </trkpt>
      <trkpt lat="50.618710" lon="6.469869">
        <ele>326.986000</ele>
        <time>2009-02-07T18:44:32Z</time>
      </trkpt>
      <trkpt lat="50.618593" lon="6.469901">
        <ele>330.350000</ele>
        <time>2009-02-07T18:44:44Z</time>
      </trkpt>
      <trkpt lat="50.618514" lon="6.469932">
        <ele>332.273000</ele>
        <time>2009-02-07T18:44:53Z</time>
      </trkpt>
      <trkpt lat="50.618343" lon="6.470016">
        <ele>335.157000</ele>
        <time>2009-02-07T18:45:12Z</time>
      </trkpt>
      <trkpt lat="50.618055" lon="6.470315">
        <ele>339.002000</ele>
        <time>2009-02-07T18:45:49Z</time>
      </trkpt>
      <trkpt lat="50.617891" lon="6.470394">
        <ele>341.886000</ele>
        <time>2009-02-07T18:46:07Z</time>
      </trkpt>
      <trkpt lat="50.617776" lon="6.470538">
        <ele>343.809000</ele>
        <time>2009-02-07T18:46:23Z</time>
      </trkpt>
      <trkpt lat="50.617795" lon="6.470608">
        <ele>344.770000</ele>
        <time>2009-02-07T18:46:28Z</time>
      </trkpt>
      <trkpt lat="50.617823" lon="6.470705">
        <ele>346.693000</ele>
        <time>2009-02-07T18:46:35Z</time>
      </trkpt>
      <trkpt lat="50.617803" lon="6.470932">
        <ele>349.577000</ele>
        <time>2009-02-07T18:46:51Z</time>
      </trkpt>
      <trkpt lat="50.617737" lon="6.471029">
        <ele>351.499000</ele>
        <time>2009-02-07T18:47:00Z</time>
      </trkpt>
      <trkpt lat="50.617721" lon="6.471100">
        <ele>351.980000</ele>
        <time>2009-02-07T18:47:05Z</time>
      </trkpt>
      <trkpt lat="50.617690" lon="6.471138">
        <ele>352.461000</ele>
        <time>2009-02-07T18:47:09Z</time>
      </trkpt>
      <trkpt lat="50.617597" lon="6.471257">
        <ele>354.383000</ele>
        <time>2009-02-07T18:47:22Z</time>
      </trkpt>
      <trkpt lat="50.617453" lon="6.471384">
        <ele>358.228000</ele>
        <time>2009-02-07T18:47:40Z</time>
      </trkpt>
      <trkpt lat="50.617342" lon="6.471463">
        <ele>361.593000</ele>
        <time>2009-02-07T18:47:53Z</time>
      </trkpt>
      <trkpt lat="50.617271" lon="6.471614">
        <ele>364.477000</ele>
        <time>2009-02-07T18:48:05Z</time>
      </trkpt>
      <trkpt lat="50.617177" lon="6.471764">
        <ele>367.842000</ele>
        <time>2009-02-07T18:48:20Z</time>
      </trkpt>
      <trkpt lat="50.617003" lon="6.471767">
        <ele>370.726000</ele>
        <time>2009-02-07T18:48:38Z</time>
      </trkpt>
      <trkpt lat="50.616584" lon="6.471852">
        <ele>373.609000</ele>
        <time>2009-02-07T18:49:23Z</time>
      </trkpt>
      <trkpt lat="50.616468" lon="6.472009">
        <ele>374.090000</ele>
        <time>2009-02-07T18:49:39Z</time>
      </trkpt>
      <trkpt lat="50.616447" lon="6.472058">
        <ele>376.013000</ele>
        <time>2009-02-07T18:49:43Z</time>
      </trkpt>
      <trkpt lat="50.616299" lon="6.472134">
        <ele>379.377000</ele>
        <time>2009-02-07T18:50:00Z</time>
      </trkpt>
      <trkpt lat="50.616246" lon="6.472301">
        <ele>382.261000</ele>
        <time>2009-02-07T18:50:13Z</time>
      </trkpt>
      <trkpt lat="50.616152" lon="6.472380">
        <ele>384.184000</ele>
        <time>2009-02-07T18:50:24Z</time>
      </trkpt>
      <trkpt lat="50.616180" lon="6.472402">
        <ele>385.145000</ele>
        <time>2009-02-07T18:50:27Z</time>
      </trkpt>
      <trkpt lat="50.616361" lon="6.472627">
        <ele>388.510000</ele>
        <time>2009-02-07T18:50:52Z</time>
      </trkpt>
      <trkpt lat="50.616402" lon="6.472654">
        <ele>388.991000</ele>
        <time>2009-02-07T18:50:56Z</time>
      </trkpt>
      <trkpt lat="50.616422" lon="6.472676">
        <ele>389.471000</ele>
        <time>2009-02-07T18:50:59Z</time>
      </trkpt>
      <trkpt lat="50.616779" lon="6.472894">
        <ele>391.394000</ele>
        <time>2009-02-07T18:51:40Z</time>
      </trkpt>
      <trkpt lat="50.617020" lon="6.472924">
        <ele>393.317000</ele>
        <time>2009-02-07T18:52:05Z</time>
      </trkpt>
      <trkpt lat="50.617139" lon="6.472891">
        <ele>396.681000</ele>
        <time>2009-02-07T18:52:18Z</time>
      </trkpt>
      <trkpt lat="50.617274" lon="6.472919">
        <ele>400.046000</ele>
        <time>2009-02-07T18:52:33Z</time>
      </trkpt>
      <trkpt lat="50.617607" lon="6.472928">
        <ele>403.410000</ele>
        <time>2009-02-07T18:53:08Z</time>
      </trkpt>
      <trkpt lat="50.618019" lon="6.473011">
        <ele>405.333000</ele>
        <time>2009-02-07T18:53:52Z</time>
      </trkpt>
      <trkpt lat="50.618113" lon="6.473044">
        <ele>408.217000</ele>
        <time>2009-02-07T18:54:03Z</time>
      </trkpt>
      <trkpt lat="50.618382" lon="6.473214">
        <ele>411.582000</ele>
        <time>2009-02-07T18:54:34Z</time>
      </trkpt>
      <trkpt lat="50.618499" lon="6.473258">
        <ele>414.465000</ele>
        <time>2009-02-07T18:54:46Z</time>
      </trkpt>
      <trkpt lat="50.618577" lon="6.473358">
        <ele>417.830000</ele>
        <time>2009-02-07T18:54:57Z</time>
      </trkpt>
      <trkpt lat="50.618595" lon="6.473370">
        <ele>416.869000</ele>
        <time>2009-02-07T18:54:59Z</time>
      </trkpt>
      <trkpt lat="50.618708" lon="6.473400">
        <ele>419.753000</ele>
        <time>2009-02-07T18:55:11Z</time>
      </trkpt>
      <trkpt lat="50.618770" lon="6.473535">
        <ele>423.117000</ele>
        <time>2009-02-07T18:55:23Z</time>
      </trkpt>
      <trkpt lat="50.618745" lon="6.473696">
        <ele>423.117000</ele>
        <time>2009-02-07T18:55:34Z</time>
      </trkpt>
      <trkpt lat="50.618718" lon="6.473737">
        <ele>422.637000</ele>
        <time>2009-02-07T18:55:38Z</time>
      </trkpt>
      <trkpt lat="50.618617" lon="6.473866">
        <ele>422.637000</ele>
        <time>2009-02-07T18:55:52Z</time>
      </trkpt>
      <trkpt lat="50.618531" lon="6.473902">
        <ele>424.079000</ele>
        <time>2009-02-07T18:56:01Z</time>
      </trkpt>
      <trkpt lat="50.618269" lon="6.473977">
        <ele>427.443000</ele>
        <time>2009-02-07T18:56:29Z</time>
      </trkpt>
      <trkpt lat="50.618260" lon="6.473984">
        <ele>427.924000</ele>
        <time>2009-02-07T18:56:30Z</time>
      </trkpt>
      <trkpt lat="50.618203" lon="6.474164">
        <ele>429.366000</ele>
        <time>2009-02-07T18:56:44Z</time>
      </trkpt>
      <trkpt lat="50.618191" lon="6.474289">
        <ele>429.366000</ele>
        <time>2009-02-07T18:56:53Z</time>
      </trkpt>
      <trkpt lat="50.618209" lon="6.474480">
        <ele>431.769000</ele>
        <time>2009-02-07T18:57:06Z</time>
      </trkpt>
      <trkpt lat="50.618272" lon="6.474562">
        <ele>432.250000</ele>
        <time>2009-02-07T18:57:14Z</time>
      </trkpt>
      <trkpt lat="50.618220" lon="6.474589">
        <ele>432.250000</ele>
        <time>2009-02-07T18:57:20Z</time>
      </trkpt>
      <trkpt lat="50.618130" lon="6.474631">
        <ele>435.134000</ele>
        <time>2009-02-07T18:57:30Z</time>
      </trkpt>
      <trkpt lat="50.618134" lon="6.474812">
        <ele>438.018000</ele>
        <time>2009-02-07T18:57:42Z</time>
      </trkpt>
      <trkpt lat="50.618056" lon="6.474929">
        <ele>439.460000</ele>
        <time>2009-02-07T18:57:54Z</time>
      </trkpt>
      <trkpt lat="50.617976" lon="6.475101">
        <ele>442.824000</ele>
        <time>2009-02-07T18:58:08Z</time>
      </trkpt>
      <trkpt lat="50.617960" lon="6.475105">
        <ele>441.863000</ele>
        <time>2009-02-07T18:58:10Z</time>
      </trkpt>
      <trkpt lat="50.618009" lon="6.475176">
        <ele>441.382000</ele>
        <time>2009-02-07T18:58:17Z</time>
      </trkpt>
      <trkpt lat="50.618074" lon="6.475206">
        <ele>439.940000</ele>
        <time>2009-02-07T18:58:24Z</time>
      </trkpt>
      <trkpt lat="50.618121" lon="6.475303">
        <ele>438.499000</ele>
        <time>2009-02-07T18:58:32Z</time>
      </trkpt>
      <trkpt lat="50.618212" lon="6.475409">
        <ele>437.057000</ele>
        <time>2009-02-07T18:58:44Z</time>
      </trkpt>
      <trkpt lat="50.618185" lon="6.475467">
        <ele>436.576000</ele>
        <time>2009-02-07T18:58:49Z</time>
      </trkpt>
      <trkpt lat="50.618282" lon="6.475481">
        <ele>435.134000</ele>
        <time>2009-02-07T18:59:00Z</time>
      </trkpt>
      <trkpt lat="50.618279" lon="6.475510">
        <ele>435.134000</ele>
        <time>2009-02-07T18:59:02Z</time>
      </trkpt>
      <trkpt lat="50.618256" lon="6.475495">
        <ele>435.134000</ele>
        <time>2009-02-07T18:59:04Z</time>
      </trkpt>
      <trkpt lat="50.618225" lon="6.475465">
        <ele>435.134000</ele>
        <time>2009-02-07T18:59:08Z</time>
      </trkpt>
      <trkpt lat="50.618201" lon="6.475476">
        <ele>435.615000</ele>
        <time>2009-02-07T18:59:11Z</time>
      </trkpt>
      <trkpt lat="50.618206" lon="6.475717">
        <ele>432.250000</ele>
        <time>2009-02-07T18:59:27Z</time>
      </trkpt>
      <trkpt lat="50.618205" lon="6.475770">
        <ele>431.769000</ele>
        <time>2009-02-07T18:59:31Z</time>
      </trkpt>
      <trkpt lat="50.618197" lon="6.475916">
        <ele>430.808000</ele>
        <time>2009-02-07T18:59:41Z</time>
      </trkpt>
      <trkpt lat="50.618196" lon="6.476197">
        <ele>428.885000</ele>
        <time>2009-02-07T19:00:00Z</time>
      </trkpt>
      <trkpt lat="50.618141" lon="6.476328">
        <ele>429.847000</ele>
        <time>2009-02-07T19:00:10Z</time>
      </trkpt>
      <trkpt lat="50.618057" lon="6.476422">
        <ele>427.924000</ele>
        <time>2009-02-07T19:00:21Z</time>
      </trkpt>
      <trkpt lat="50.618045" lon="6.476432">
        <ele>426.482000</ele>
        <time>2009-02-07T19:00:23Z</time>
      </trkpt>
      <trkpt lat="50.617953" lon="6.476596">
        <ele>429.847000</ele>
        <time>2009-02-07T19:00:37Z</time>
      </trkpt>
      <trkpt lat="50.617845" lon="6.476779">
        <ele>429.366000</ele>
        <time>2009-02-07T19:00:54Z</time>
      </trkpt>
      <trkpt lat="50.617787" lon="6.476884">
        <ele>429.366000</ele>
        <time>2009-02-07T19:01:04Z</time>
      </trkpt>
      <trkpt lat="50.617717" lon="6.477061">
        <ele>429.366000</ele>
        <time>2009-02-07T19:01:18Z</time>
      </trkpt>
      <trkpt lat="50.617637" lon="6.477247">
        <ele>428.405000</ele>
        <time>2009-02-07T19:01:33Z</time>
      </trkpt>
      <trkpt lat="50.617629" lon="6.477261">
        <ele>427.924000</ele>
        <time>2009-02-07T19:01:34Z</time>
      </trkpt>
      <trkpt lat="50.617548" lon="6.477504">
        <ele>426.001000</ele>
        <time>2009-02-07T19:01:53Z</time>
      </trkpt>
      <trkpt lat="50.617461" lon="6.477703">
        <ele>424.559000</ele>
        <time>2009-02-07T19:02:09Z</time>
      </trkpt>
      <trkpt lat="50.617444" lon="6.477750">
        <ele>425.040000</ele>
        <time>2009-02-07T19:02:13Z</time>
      </trkpt>
      <trkpt lat="50.617374" lon="6.477977">
        <ele>424.559000</ele>
        <time>2009-02-07T19:02:30Z</time>
      </trkpt>
      <trkpt lat="50.617344" lon="6.478130">
        <ele>421.195000</ele>
        <time>2009-02-07T19:02:40Z</time>
      </trkpt>
      <trkpt lat="50.617444" lon="6.478366">
        <ele>419.272000</ele>
        <time>2009-02-07T19:03:00Z</time>
      </trkpt>
      <trkpt lat="50.617518" lon="6.478403">
        <ele>417.830000</ele>
        <time>2009-02-07T19:03:08Z</time>
      </trkpt>
      <trkpt lat="50.617645" lon="6.478436">
        <ele>418.792000</ele>
        <time>2009-02-07T19:03:22Z</time>
      </trkpt>
      <trkpt lat="50.617737" lon="6.478448">
        <ele>417.830000</ele>
        <time>2009-02-07T19:03:31Z</time>
      </trkpt>
      <trkpt lat="50.617957" lon="6.478594">
        <ele>418.311000</ele>
        <time>2009-02-07T19:03:57Z</time>
      </trkpt>
      <trkpt lat="50.618047" lon="6.478725">
        <ele>415.427000</ele>
        <time>2009-02-07T19:04:10Z</time>
      </trkpt>
      <trkpt lat="50.618053" lon="6.478735">
        <ele>416.388000</ele>
        <time>2009-02-07T19:04:11Z</time>
      </trkpt>
      <trkpt lat="50.618091" lon="6.478768">
        <ele>417.350000</ele>
        <time>2009-02-07T19:04:15Z</time>
      </trkpt>
      <trkpt lat="50.618165" lon="6.478871">
        <ele>415.427000</ele>
        <time>2009-02-07T19:04:26Z</time>
      </trkpt>
      <trkpt lat="50.618390" lon="6.479017">
        <ele>413.024000</ele>
        <time>2009-02-07T19:04:52Z</time>
      </trkpt>
      <trkpt lat="50.618496" lon="6.479122">
        <ele>411.101000</ele>
        <time>2009-02-07T19:05:05Z</time>
      </trkpt>
      <trkpt lat="50.618597" lon="6.479095">
        <ele>412.543000</ele>
        <time>2009-02-07T19:05:16Z</time>
      </trkpt>
      <trkpt lat="50.618430" lon="6.479232">
        <ele>412.543000</ele>
        <time>2009-02-07T19:05:36Z</time>
      </trkpt>
      <trkpt lat="50.618480" lon="6.479231">
        <ele>413.985000</ele>
        <time>2009-02-07T19:05:41Z</time>
      </trkpt>
      <trkpt lat="50.618490" lon="6.479240">
        <ele>413.024000</ele>
        <time>2009-02-07T19:05:43Z</time>
      </trkpt>
      <trkpt lat="50.618661" lon="6.479543">
        <ele>414.946000</ele>
        <time>2009-02-07T19:06:10Z</time>
      </trkpt>
      <trkpt lat="50.618677" lon="6.479582">
        <ele>414.465000</ele>
        <time>2009-02-07T19:06:13Z</time>
      </trkpt>
      <trkpt lat="50.618677" lon="6.479742">
        <ele>414.465000</ele>
        <time>2009-02-07T19:06:24Z</time>
      </trkpt>
      <trkpt lat="50.618645" lon="6.479874">
        <ele>412.543000</ele>
        <time>2009-02-07T19:06:33Z</time>
      </trkpt>
      <trkpt lat="50.618646" lon="6.479870">
        <ele>416.869000</ele>
        <time>2009-02-07T19:06:34Z</time>
      </trkpt>
      <trkpt lat="50.618739" lon="6.479988">
        <ele>415.907000</ele>
        <time>2009-02-07T19:06:46Z</time>
      </trkpt>
      <trkpt lat="50.618748" lon="6.480000">
        <ele>416.869000</ele>
        <time>2009-02-07T19:06:48Z</time>
      </trkpt>
      <trkpt lat="50.618749" lon="6.480001">
        <ele>414.946000</ele>
        <time>2009-02-07T19:06:48Z</time>
      </trkpt>
      <trkpt lat="50.618788" lon="6.480013">
        <ele>411.582000</ele>
        <time>2009-02-07T19:06:52Z</time>
      </trkpt>
      <trkpt lat="50.618789" lon="6.480014">
        <ele>411.582000</ele>
        <time>2009-02-07T19:06:52Z</time>
      </trkpt>
      <trkpt lat="50.618793" lon="6.480016">
        <ele>414.946000</ele>
        <time>2009-02-07T19:06:53Z</time>
      </trkpt>
      <trkpt lat="50.618819" lon="6.480014">
        <ele>416.869000</ele>
        <time>2009-02-07T19:06:55Z</time>
      </trkpt>
      <trkpt lat="50.618834" lon="6.480033">
        <ele>417.350000</ele>
        <time>2009-02-07T19:06:57Z</time>
      </trkpt>
      <trkpt lat="50.618763" lon="6.479921">
        <ele>416.388000</ele>
        <time>2009-02-07T19:07:08Z</time>
      </trkpt>
      <trkpt lat="50.618805" lon="6.479857">
        <ele>414.465000</ele>
        <time>2009-02-07T19:07:14Z</time>
      </trkpt>
      <trkpt lat="50.618710" lon="6.479884">
        <ele>415.427000</ele>
        <time>2009-02-07T19:07:25Z</time>
      </trkpt>
      <trkpt lat="50.618697" lon="6.479724">
        <ele>413.504000</ele>
        <time>2009-02-07T19:07:35Z</time>
      </trkpt>
      <trkpt lat="50.618695" lon="6.479716">
        <ele>413.985000</ele>
        <time>2009-02-07T19:07:36Z</time>
      </trkpt>
      <trkpt lat="50.618587" lon="6.479696">
        <ele>415.427000</ele>
        <time>2009-02-07T19:07:48Z</time>
      </trkpt>
      <trkpt lat="50.618569" lon="6.479570">
        <ele>416.388000</ele>
        <time>2009-02-07T19:07:56Z</time>
      </trkpt>
      <trkpt lat="50.618594" lon="6.479547">
        <ele>416.388000</ele>
        <time>2009-02-07T19:07:59Z</time>
      </trkpt>
      <trkpt lat="50.618564" lon="6.479319">
        <ele>415.907000</ele>
        <time>2009-02-07T19:08:15Z</time>
      </trkpt>
      <trkpt lat="50.618555" lon="6.479285">
        <ele>420.714000</ele>
        <time>2009-02-07T19:08:18Z</time>
      </trkpt>
      <trkpt lat="50.618513" lon="6.479218">
        <ele>417.830000</ele>
        <time>2009-02-07T19:08:24Z</time>
      </trkpt>
      <trkpt lat="50.618491" lon="6.479187">
        <ele>419.753000</ele>
        <time>2009-02-07T19:08:27Z</time>
      </trkpt>
      <trkpt lat="50.618478" lon="6.479127">
        <ele>420.233000</ele>
        <time>2009-02-07T19:08:31Z</time>
      </trkpt>
      <trkpt lat="50.618384" lon="6.478951">
        <ele>421.195000</ele>
        <time>2009-02-07T19:08:47Z</time>
      </trkpt>
      <trkpt lat="50.618322" lon="6.478842">
        <ele>423.117000</ele>
        <time>2009-02-07T19:08:57Z</time>
      </trkpt>
      <trkpt lat="50.618254" lon="6.478761">
        <ele>422.637000</ele>
        <time>2009-02-07T19:09:06Z</time>
      </trkpt>
      <trkpt lat="50.618185" lon="6.478723">
        <ele>422.637000</ele>
        <time>2009-02-07T19:09:14Z</time>
      </trkpt>
      <trkpt lat="50.618155" lon="6.478663">
        <ele>423.117000</ele>
        <time>2009-02-07T19:09:19Z</time>
      </trkpt>
      <trkpt lat="50.618009" lon="6.478634">
        <ele>422.156000</ele>
        <time>2009-02-07T19:09:34Z</time>
      </trkpt>
      <trkpt lat="50.617900" lon="6.478566">
        <ele>423.598000</ele>
        <time>2009-02-07T19:09:47Z</time>
      </trkpt>
      <trkpt lat="50.617749" lon="6.478478">
        <ele>426.001000</ele>
        <time>2009-02-07T19:10:04Z</time>
      </trkpt>
      <trkpt lat="50.617613" lon="6.478402">
        <ele>425.040000</ele>
        <time>2009-02-07T19:10:19Z</time>
      </trkpt>
      <trkpt lat="50.617606" lon="6.478400">
        <ele>425.040000</ele>
        <time>2009-02-07T19:10:20Z</time>
      </trkpt>
      <trkpt lat="50.617600" lon="6.478399">
        <ele>425.040000</ele>
        <time>2009-02-07T19:10:21Z</time>
      </trkpt>
      <trkpt lat="50.617549" lon="6.478438">
        <ele>425.521000</ele>
        <time>2009-02-07T19:10:27Z</time>
      </trkpt>
      <trkpt lat="50.617452" lon="6.478427">
        <ele>426.001000</ele>
        <time>2009-02-07T19:10:37Z</time>
      </trkpt>
      <trkpt lat="50.617355" lon="6.478554">
        <ele>426.482000</ele>
        <time>2009-02-07T19:10:51Z</time>
      </trkpt>
      <trkpt lat="50.617294" lon="6.478592">
        <ele>426.482000</ele>
        <time>2009-02-07T19:10:58Z</time>
      </trkpt>
      <trkpt lat="50.617145" lon="6.478610">
        <ele>427.924000</ele>
        <time>2009-02-07T19:11:14Z</time>
      </trkpt>
      <trkpt lat="50.617060" lon="6.478708">
        <ele>427.924000</ele>
        <time>2009-02-07T19:11:25Z</time>
      </trkpt>
      <trkpt lat="50.616783" lon="6.478706">
        <ele>430.808000</ele>
        <time>2009-02-07T19:11:54Z</time>
      </trkpt>
      <trkpt lat="50.616309" lon="6.478695">
        <ele>432.250000</ele>
        <time>2009-02-07T19:12:45Z</time>
      </trkpt>
      <trkpt lat="50.616172" lon="6.478742">
        <ele>433.211000</ele>
        <time>2009-02-07T19:13:00Z</time>
      </trkpt>
      <trkpt lat="50.616139" lon="6.478770">
        <ele>433.211000</ele>
        <time>2009-02-07T19:13:04Z</time>
      </trkpt>
      <trkpt lat="50.616119" lon="6.478758">
        <ele>433.692000</ele>
        <time>2009-02-07T19:13:06Z</time>
      </trkpt>
      <trkpt lat="50.616044" lon="6.478780">
        <ele>433.692000</ele>
        <time>2009-02-07T19:13:14Z</time>
      </trkpt>
      <trkpt lat="50.615966" lon="6.478798">
        <ele>433.692000</ele>
        <time>2009-02-07T19:13:22Z</time>
      </trkpt>
      <trkpt lat="50.615937" lon="6.478815">
        <ele>434.173000</ele>
        <time>2009-02-07T19:13:26Z</time>
      </trkpt>
      <trkpt lat="50.615909" lon="6.478809">
        <ele>434.173000</ele>
        <time>2009-02-07T19:13:29Z</time>
      </trkpt>
      <trkpt lat="50.615825" lon="6.478837">
        <ele>434.653000</ele>
        <time>2009-02-07T19:13:38Z</time>
      </trkpt>
      <trkpt lat="50.615691" lon="6.479040">
        <ele>435.615000</ele>
        <time>2009-02-07T19:13:58Z</time>
      </trkpt>
      <trkpt lat="50.615607" lon="6.479072">
        <ele>438.979000</ele>
        <time>2009-02-07T19:14:07Z</time>
      </trkpt>
      <trkpt lat="50.615576" lon="6.479097">
        <ele>437.057000</ele>
        <time>2009-02-07T19:14:10Z</time>
      </trkpt>
      <trkpt lat="50.615451" lon="6.479315">
        <ele>440.421000</ele>
        <time>2009-02-07T19:14:30Z</time>
      </trkpt>
      <trkpt lat="50.615461" lon="6.479355">
        <ele>441.382000</ele>
        <time>2009-02-07T19:14:33Z</time>
      </trkpt>
      <trkpt lat="50.615427" lon="6.479673">
        <ele>443.305000</ele>
        <time>2009-02-07T19:14:55Z</time>
      </trkpt>
      <trkpt lat="50.615322" lon="6.480109">
        <ele>445.708000</ele>
        <time>2009-02-07T19:15:26Z</time>
      </trkpt>
      <trkpt lat="50.615225" lon="6.480496">
        <ele>445.708000</ele>
        <time>2009-02-07T19:15:55Z</time>
      </trkpt>
      <trkpt lat="50.615221" lon="6.480509">
        <ele>445.228000</ele>
        <time>2009-02-07T19:15:55Z</time>
      </trkpt>
      <trkpt lat="50.615183" lon="6.480576">
        <ele>446.670000</ele>
        <time>2009-02-07T19:16:02Z</time>
      </trkpt>
      <trkpt lat="50.615141" lon="6.480627">
        <ele>447.631000</ele>
        <time>2009-02-07T19:16:07Z</time>
      </trkpt>
      <trkpt lat="50.615066" lon="6.480723">
        <ele>449.073000</ele>
        <time>2009-02-07T19:16:17Z</time>
      </trkpt>
      <trkpt lat="50.614908" lon="6.480849">
        <ele>451.957000</ele>
        <time>2009-02-07T19:16:36Z</time>
      </trkpt>
      <trkpt lat="50.614709" lon="6.480859">
        <ele>452.918000</ele>
        <time>2009-02-07T19:16:57Z</time>
      </trkpt>
      <trkpt lat="50.614391" lon="6.480697">
        <ele>455.322000</ele>
        <time>2009-02-07T19:17:33Z</time>
      </trkpt>
      <trkpt lat="50.614260" lon="6.480544">
        <ele>457.725000</ele>
        <time>2009-02-07T19:17:50Z</time>
      </trkpt>
      <trkpt lat="50.614107" lon="6.480391">
        <ele>459.167000</ele>
        <time>2009-02-07T19:18:10Z</time>
      </trkpt>
      <trkpt lat="50.613965" lon="6.480311">
        <ele>460.609000</ele>
        <time>2009-02-07T19:18:26Z</time>
      </trkpt>
      <trkpt lat="50.613820" lon="6.480236">
        <ele>461.089000</ele>
        <time>2009-02-07T19:18:42Z</time>
      </trkpt>
      <trkpt lat="50.613762" lon="6.480177">
        <ele>460.609000</ele>
        <time>2009-02-07T19:18:49Z</time>
      </trkpt>
      <trkpt lat="50.613651" lon="6.480152">
        <ele>461.570000</ele>
        <time>2009-02-07T19:19:01Z</time>
      </trkpt>
      <trkpt lat="50.613572" lon="6.480183">
        <ele>462.531000</ele>
        <time>2009-02-07T19:19:10Z</time>
      </trkpt>
      <trkpt lat="50.613512" lon="6.480207">
        <ele>462.531000</ele>
        <time>2009-02-07T19:19:16Z</time>
      </trkpt>
      <trkpt lat="50.613471" lon="6.480240">
        <ele>462.051000</ele>
        <time>2009-02-07T19:19:21Z</time>
      </trkpt>
      <trkpt lat="50.613332" lon="6.480284">
        <ele>464.935000</ele>
        <time>2009-02-07T19:19:36Z</time>
      </trkpt>
      <trkpt lat="50.613251" lon="6.480263">
        <ele>464.935000</ele>
        <time>2009-02-07T19:19:45Z</time>
      </trkpt>
      <trkpt lat="50.613213" lon="6.480306">
        <ele>466.857000</ele>
        <time>2009-02-07T19:19:50Z</time>
      </trkpt>
      <trkpt lat="50.612961" lon="6.480348">
        <ele>469.261000</ele>
        <time>2009-02-07T19:20:17Z</time>
      </trkpt>
      <trkpt lat="50.612778" lon="6.480324">
        <ele>473.106000</ele>
        <time>2009-02-07T19:20:37Z</time>
      </trkpt>
      <trkpt lat="50.612769" lon="6.480322">
        <ele>472.625000</ele>
        <time>2009-02-07T19:20:38Z</time>
      </trkpt>
      <trkpt lat="50.612571" lon="6.480273">
        <ele>474.067000</ele>
        <time>2009-02-07T19:20:59Z</time>
      </trkpt>
      <trkpt lat="50.612463" lon="6.480176">
        <ele>474.548000</ele>
        <time>2009-02-07T19:21:12Z</time>
      </trkpt>
      <trkpt lat="50.612352" lon="6.480142">
        <ele>475.990000</ele>
        <time>2009-02-07T19:21:24Z</time>
      </trkpt>
      <trkpt lat="50.612350" lon="6.480139">
        <ele>475.990000</ele>
        <time>2009-02-07T19:21:25Z</time>
      </trkpt>
      <trkpt lat="50.611934" lon="6.480094">
        <ele>476.471000</ele>
        <time>2009-02-07T19:22:09Z</time>
      </trkpt>
      <trkpt lat="50.611848" lon="6.480238">
        <ele>478.393000</ele>
        <time>2009-02-07T19:22:22Z</time>
      </trkpt>
      <trkpt lat="50.611827" lon="6.480403">
        <ele>478.393000</ele>
        <time>2009-02-07T19:22:34Z</time>
      </trkpt>
      <trkpt lat="50.611794" lon="6.480650">
        <ele>478.393000</ele>
        <time>2009-02-07T19:22:51Z</time>
      </trkpt>
      <trkpt lat="50.611755" lon="6.480746">
        <ele>480.316000</ele>
        <time>2009-02-07T19:22:58Z</time>
      </trkpt>
      <trkpt lat="50.611705" lon="6.480834">
        <ele>480.316000</ele>
        <time>2009-02-07T19:23:06Z</time>
      </trkpt>
      <trkpt lat="50.611684" lon="6.480878">
        <ele>479.835000</ele>
        <time>2009-02-07T19:23:10Z</time>
      </trkpt>
      <trkpt lat="50.611645" lon="6.480906">
        <ele>479.835000</ele>
        <time>2009-02-07T19:23:15Z</time>
      </trkpt>
      <trkpt lat="50.611617" lon="6.480931">
        <ele>480.316000</ele>
        <time>2009-02-07T19:23:18Z</time>
      </trkpt>
      <trkpt lat="50.611558" lon="6.480913">
        <ele>480.797000</ele>
        <time>2009-02-07T19:23:24Z</time>
      </trkpt>
      <trkpt lat="50.611473" lon="6.480883">
        <ele>480.797000</ele>
        <time>2009-02-07T19:23:34Z</time>
      </trkpt>
      <trkpt lat="50.611428" lon="6.480863">
        <ele>481.277000</ele>
        <time>2009-02-07T19:23:39Z</time>
      </trkpt>
      <trkpt lat="50.611377" lon="6.480858">
        <ele>481.758000</ele>
        <time>2009-02-07T19:23:44Z</time>
      </trkpt>
      <trkpt lat="50.611342" lon="6.480832">
        <ele>481.758000</ele>
        <time>2009-02-07T19:23:48Z</time>
      </trkpt>
      <trkpt lat="50.611240" lon="6.480732">
        <ele>482.239000</ele>
        <time>2009-02-07T19:24:01Z</time>
      </trkpt>
      <trkpt lat="50.611076" lon="6.480571">
        <ele>483.680000</ele>
        <time>2009-02-07T19:24:22Z</time>
      </trkpt>
      <trkpt lat="50.610970" lon="6.480441">
        <ele>484.161000</ele>
        <time>2009-02-07T19:24:36Z</time>
      </trkpt>
      <trkpt lat="50.610837" lon="6.480292">
        <ele>485.603000</ele>
        <time>2009-02-07T19:24:53Z</time>
      </trkpt>
      <trkpt lat="50.610659" lon="6.480267">
        <ele>485.603000</ele>
        <time>2009-02-07T19:25:12Z</time>
      </trkpt>
      <trkpt lat="50.610560" lon="6.480269">
        <ele>486.564000</ele>
        <time>2009-02-07T19:25:23Z</time>
      </trkpt>
      <trkpt lat="50.610313" lon="6.480343">
        <ele>489.448000</ele>
        <time>2009-02-07T19:25:50Z</time>
      </trkpt>
      <trkpt lat="50.610175" lon="6.480283">
        <ele>491.371000</ele>
        <time>2009-02-07T19:26:05Z</time>
      </trkpt>
      <trkpt lat="50.610095" lon="6.480293">
        <ele>491.852000</ele>
        <time>2009-02-07T19:26:13Z</time>
      </trkpt>
      <trkpt lat="50.609557" lon="6.480043">
        <ele>495.216000</ele>
        <time>2009-02-07T19:27:13Z</time>
      </trkpt>
      <trkpt lat="50.609356" lon="6.480045">
        <ele>494.736000</ele>
        <time>2009-02-07T19:27:34Z</time>
      </trkpt>
      <trkpt lat="50.608819" lon="6.479779">
        <ele>493.294000</ele>
        <time>2009-02-07T19:28:34Z</time>
      </trkpt>
      <trkpt lat="50.608379" lon="6.479634">
        <ele>491.852000</ele>
        <time>2009-02-07T19:29:22Z</time>
      </trkpt>
      <trkpt lat="50.608120" lon="6.479570">
        <ele>488.968000</ele>
        <time>2009-02-07T19:29:50Z</time>
      </trkpt>
      <trkpt lat="50.607960" lon="6.479701">
        <ele>492.332000</ele>
        <time>2009-02-07T19:30:09Z</time>
      </trkpt>
      <trkpt lat="50.607893" lon="6.479763">
        <ele>493.774000</ele>
        <time>2009-02-07T19:30:17Z</time>
      </trkpt>
      <trkpt lat="50.607571" lon="6.480039">
        <ele>495.216000</ele>
        <time>2009-02-07T19:30:56Z</time>
      </trkpt>
      <trkpt lat="50.607357" lon="6.480216">
        <ele>497.139000</ele>
        <time>2009-02-07T19:31:22Z</time>
      </trkpt>
      <trkpt lat="50.607327" lon="6.480236">
        <ele>496.658000</ele>
        <time>2009-02-07T19:31:26Z</time>
      </trkpt>
      <trkpt lat="50.607253" lon="6.480302">
        <ele>496.658000</ele>
        <time>2009-02-07T19:31:35Z</time>
      </trkpt>
      <trkpt lat="50.607106" lon="6.480395">
        <ele>497.139000</ele>
        <time>2009-02-07T19:31:52Z</time>
      </trkpt>
      <trkpt lat="50.606886" lon="6.480546">
        <ele>497.620000</ele>
        <time>2009-02-07T19:32:17Z</time>
      </trkpt>
      <trkpt lat="50.606648" lon="6.480643">
        <ele>496.178000</ele>
        <time>2009-02-07T19:32:43Z</time>
      </trkpt>
      <trkpt lat="50.606516" lon="6.480665">
        <ele>492.332000</ele>
        <time>2009-02-07T19:32:57Z</time>
      </trkpt>
      <trkpt lat="50.606264" lon="6.480753">
        <ele>488.968000</ele>
        <time>2009-02-07T19:33:25Z</time>
      </trkpt>
      <trkpt lat="50.606085" lon="6.480785">
        <ele>485.603000</ele>
        <time>2009-02-07T19:33:44Z</time>
      </trkpt>
      <trkpt lat="50.605896" lon="6.480905">
        <ele>484.161000</ele>
        <time>2009-02-07T19:34:06Z</time>
      </trkpt>
      <trkpt lat="50.605755" lon="6.480800">
        <ele>483.200000</ele>
        <time>2009-02-07T19:34:22Z</time>
      </trkpt>
      <trkpt lat="50.605516" lon="6.480889">
        <ele>482.719000</ele>
        <time>2009-02-07T19:34:48Z</time>
      </trkpt>
      <trkpt lat="50.605526" lon="6.481020">
        <ele>482.719000</ele>
        <time>2009-02-07T19:34:57Z</time>
      </trkpt>
      <trkpt lat="50.605534" lon="6.481092">
        <ele>481.277000</ele>
        <time>2009-02-07T19:35:02Z</time>
      </trkpt>
      <trkpt lat="50.605529" lon="6.481237">
        <ele>483.200000</ele>
        <time>2009-02-07T19:35:12Z</time>
      </trkpt>
      <trkpt lat="50.605258" lon="6.481556">
        <ele>479.835000</ele>
        <time>2009-02-07T19:35:48Z</time>
      </trkpt>
      <trkpt lat="50.605147" lon="6.481635">
        <ele>479.354000</ele>
        <time>2009-02-07T19:36:01Z</time>
      </trkpt>
      <trkpt lat="50.604937" lon="6.481734">
        <ele>478.393000</ele>
        <time>2009-02-07T19:36:24Z</time>
      </trkpt>
      <trkpt lat="50.604831" lon="6.481917">
        <ele>478.874000</ele>
        <time>2009-02-07T19:36:41Z</time>
      </trkpt>
      <trkpt lat="50.604675" lon="6.482052">
        <ele>478.874000</ele>
        <time>2009-02-07T19:37:00Z</time>
      </trkpt>
      <trkpt lat="50.604439" lon="6.482303">
        <ele>479.835000</ele>
        <time>2009-02-07T19:37:30Z</time>
      </trkpt>
      <trkpt lat="50.604341" lon="6.482502">
        <ele>479.835000</ele>
        <time>2009-02-07T19:37:47Z</time>
      </trkpt>
      <trkpt lat="50.604168" lon="6.482808">
        <ele>480.316000</ele>
        <time>2009-02-07T19:38:15Z</time>
      </trkpt>
      <trkpt lat="50.603940" lon="6.483202">
        <ele>481.277000</ele>
        <time>2009-02-07T19:38:51Z</time>
      </trkpt>
      <trkpt lat="50.603814" lon="6.483512">
        <ele>482.239000</ele>
        <time>2009-02-07T19:39:16Z</time>
      </trkpt>
      <trkpt lat="50.603702" lon="6.483705">
        <ele>484.161000</ele>
        <time>2009-02-07T19:39:33Z</time>
      </trkpt>
      <trkpt lat="50.603430" lon="6.484202">
        <ele>486.564000</ele>
        <time>2009-02-07T19:40:18Z</time>
      </trkpt>
      <trkpt lat="50.603152" lon="6.484932">
        <ele>489.448000</ele>
        <time>2009-02-07T19:41:15Z</time>
      </trkpt>
      <trkpt lat="50.603012" lon="6.485093">
        <ele>489.929000</ele>
        <time>2009-02-07T19:41:34Z</time>
      </trkpt>
      <trkpt lat="50.602839" lon="6.485451">
        <ele>491.371000</ele>
        <time>2009-02-07T19:42:04Z</time>
      </trkpt>
      <trkpt lat="50.602735" lon="6.485634">
        <ele>492.813000</ele>
        <time>2009-02-07T19:42:21Z</time>
      </trkpt>
      <trkpt lat="50.602621" lon="6.485802">
        <ele>493.774000</ele>
        <time>2009-02-07T19:42:37Z</time>
      </trkpt>
      <trkpt lat="50.602536" lon="6.485917">
        <ele>495.697000</ele>
        <time>2009-02-07T19:42:49Z</time>
      </trkpt>
      <trkpt lat="50.602541" lon="6.486008">
        <ele>495.216000</ele>
        <time>2009-02-07T19:42:55Z</time>
      </trkpt>
      <trkpt lat="50.602588" lon="6.486256">
        <ele>495.697000</ele>
        <time>2009-02-07T19:43:13Z</time>
      </trkpt>
      <trkpt lat="50.602611" lon="6.486248">
        <ele>497.139000</ele>
        <time>2009-02-07T19:43:15Z</time>
      </trkpt>
      <trkpt lat="50.602558" lon="6.486186">
        <ele>496.178000</ele>
        <time>2009-02-07T19:43:22Z</time>
      </trkpt>
      <trkpt lat="50.602278" lon="6.486609">
        <ele>498.581000</ele>
        <time>2009-02-07T19:44:04Z</time>
      </trkpt>
      <trkpt lat="50.602223" lon="6.486782">
        <ele>500.023000</ele>
        <time>2009-02-07T19:44:17Z</time>
      </trkpt>
      <trkpt lat="50.602115" lon="6.486918">
        <ele>500.504000</ele>
        <time>2009-02-07T19:44:31Z</time>
      </trkpt>
      <trkpt lat="50.602020" lon="6.486969">
        <ele>499.542000</ele>
        <time>2009-02-07T19:44:42Z</time>
      </trkpt>
      <trkpt lat="50.601784" lon="6.487347">
        <ele>500.984000</ele>
        <time>2009-02-07T19:45:18Z</time>
      </trkpt>
      <trkpt lat="50.601491" lon="6.487735">
        <ele>500.023000</ele>
        <time>2009-02-07T19:45:59Z</time>
      </trkpt>
      <trkpt lat="50.601385" lon="6.487870">
        <ele>500.504000</ele>
        <time>2009-02-07T19:46:13Z</time>
      </trkpt>
      <trkpt lat="50.601220" lon="6.488109">
        <ele>501.465000</ele>
        <time>2009-02-07T19:46:37Z</time>
      </trkpt>
      <trkpt lat="50.601060" lon="6.488304">
        <ele>501.465000</ele>
        <time>2009-02-07T19:46:58Z</time>
      </trkpt>
      <trkpt lat="50.600938" lon="6.488501">
        <ele>501.465000</ele>
        <time>2009-02-07T19:47:17Z</time>
      </trkpt>
      <trkpt lat="50.600901" lon="6.488581">
        <ele>501.465000</ele>
        <time>2009-02-07T19:47:24Z</time>
      </trkpt>
      <trkpt lat="50.600701" lon="6.488739">
        <ele>500.984000</ele>
        <time>2009-02-07T19:47:48Z</time>
      </trkpt>
      <trkpt lat="50.600664" lon="6.488811">
        <ele>501.946000</ele>
        <time>2009-02-07T19:47:54Z</time>
      </trkpt>
      <trkpt lat="50.600591" lon="6.488884">
        <ele>501.465000</ele>
        <time>2009-02-07T19:48:03Z</time>
      </trkpt>
      <trkpt lat="50.600464" lon="6.488831">
        <ele>502.426000</ele>
        <time>2009-02-07T19:48:17Z</time>
      </trkpt>
      <trkpt lat="50.600393" lon="6.488840">
        <ele>501.946000</ele>
        <time>2009-02-07T19:48:25Z</time>
      </trkpt>
      <trkpt lat="50.600303" lon="6.488829">
        <ele>501.465000</ele>
        <time>2009-02-07T19:48:34Z</time>
      </trkpt>
      <trkpt lat="50.600256" lon="6.488815">
        <ele>501.465000</ele>
        <time>2009-02-07T19:48:39Z</time>
      </trkpt>
      <trkpt lat="50.600203" lon="6.488855">
        <ele>501.946000</ele>
        <time>2009-02-07T19:48:46Z</time>
      </trkpt>
      <trkpt lat="50.600053" lon="6.488951">
        <ele>501.946000</ele>
        <time>2009-02-07T19:49:03Z</time>
      </trkpt>
      <trkpt lat="50.600021" lon="6.489000">
        <ele>500.984000</ele>
        <time>2009-02-07T19:49:07Z</time>
      </trkpt>
      <trkpt lat="50.599862" lon="6.489213">
        <ele>502.426000</ele>
        <time>2009-02-07T19:49:30Z</time>
      </trkpt>
      <trkpt lat="50.599818" lon="6.489262">
        <ele>503.387000</ele>
        <time>2009-02-07T19:49:35Z</time>
      </trkpt>
      <trkpt lat="50.599338" lon="6.489817">
        <ele>506.271000</ele>
        <time>2009-02-07T19:50:39Z</time>
      </trkpt>
      <trkpt lat="50.599182" lon="6.489923">
        <ele>509.636000</ele>
        <time>2009-02-07T19:50:57Z</time>
      </trkpt>
      <trkpt lat="50.598805" lon="6.490243">
        <ele>512.039000</ele>
        <time>2009-02-07T19:51:42Z</time>
      </trkpt>
      <trkpt lat="50.598342" lon="6.490520">
        <ele>515.404000</ele>
        <time>2009-02-07T19:52:35Z</time>
      </trkpt>
      <trkpt lat="50.597950" lon="6.490602">
        <ele>516.365000</ele>
        <time>2009-02-07T19:53:17Z</time>
      </trkpt>
      <trkpt lat="50.597796" lon="6.490622">
        <ele>519.249000</ele>
        <time>2009-02-07T19:53:34Z</time>
      </trkpt>
      <trkpt lat="50.597671" lon="6.490690">
        <ele>519.730000</ele>
        <time>2009-02-07T19:53:48Z</time>
      </trkpt>
      <trkpt lat="50.597611" lon="6.490733">
        <ele>520.211000</ele>
        <time>2009-02-07T19:53:55Z</time>
      </trkpt>
      <trkpt lat="50.597451" lon="6.490771">
        <ele>520.211000</ele>
        <time>2009-02-07T19:54:12Z</time>
      </trkpt>
      <trkpt lat="50.596834" lon="6.490825">
        <ele>521.653000</ele>
        <time>2009-02-07T19:55:18Z</time>
      </trkpt>
      <trkpt lat="50.596621" lon="6.490945">
        <ele>524.536000</ele>
        <time>2009-02-07T19:55:42Z</time>
      </trkpt>
      <trkpt lat="50.596390" lon="6.491001">
        <ele>525.017000</ele>
        <time>2009-02-07T19:56:07Z</time>
      </trkpt>
      <trkpt lat="50.596316" lon="6.491043">
        <ele>525.017000</ele>
        <time>2009-02-07T19:56:15Z</time>
      </trkpt>
      <trkpt lat="50.596153" lon="6.491042">
        <ele>524.056000</ele>
        <time>2009-02-07T19:56:32Z</time>
      </trkpt>
      <trkpt lat="50.596056" lon="6.491059">
        <ele>524.056000</ele>
        <time>2009-02-07T19:56:43Z</time>
      </trkpt>
      <trkpt lat="50.595960" lon="6.491006">
        <ele>524.536000</ele>
        <time>2009-02-07T19:56:54Z</time>
      </trkpt>
      <trkpt lat="50.595930" lon="6.491013">
        <ele>524.056000</ele>
        <time>2009-02-07T19:56:57Z</time>
      </trkpt>
      <trkpt lat="50.595826" lon="6.490983">
        <ele>524.536000</ele>
        <time>2009-02-07T19:57:08Z</time>
      </trkpt>
      <trkpt lat="50.595786" lon="6.490999">
        <ele>524.536000</ele>
        <time>2009-02-07T19:57:12Z</time>
      </trkpt>
      <trkpt lat="50.595574" lon="6.491010">
        <ele>524.536000</ele>
        <time>2009-02-07T19:57:35Z</time>
      </trkpt>
      <trkpt lat="50.595357" lon="6.491070">
        <ele>524.056000</ele>
        <time>2009-02-07T19:57:58Z</time>
      </trkpt>
      <trkpt lat="50.595148" lon="6.491180">
        <ele>524.536000</ele>
        <time>2009-02-07T19:58:22Z</time>
      </trkpt>
      <trkpt lat="50.594971" lon="6.491270">
        <ele>525.017000</ele>
        <time>2009-02-07T19:58:42Z</time>
      </trkpt>
      <trkpt lat="50.594838" lon="6.491386">
        <ele>526.940000</ele>
        <time>2009-02-07T19:58:58Z</time>
      </trkpt>
      <trkpt lat="50.594766" lon="6.491420">
        <ele>526.459000</ele>
        <time>2009-02-07T19:59:06Z</time>
      </trkpt>
      <trkpt lat="50.594700" lon="6.491476">
        <ele>525.978000</ele>
        <time>2009-02-07T19:59:14Z</time>
      </trkpt>
      <trkpt lat="50.594528" lon="6.491605">
        <ele>526.459000</ele>
        <time>2009-02-07T19:59:34Z</time>
      </trkpt>
      <trkpt lat="50.594405" lon="6.491658">
        <ele>524.536000</ele>
        <time>2009-02-07T19:59:48Z</time>
      </trkpt>
      <trkpt lat="50.594360" lon="6.491702">
        <ele>523.095000</ele>
        <time>2009-02-07T19:59:53Z</time>
      </trkpt>
      <trkpt lat="50.594310" lon="6.491747">
        <ele>521.653000</ele>
        <time>2009-02-07T19:59:59Z</time>
      </trkpt>
      <trkpt lat="50.594137" lon="6.491911">
        <ele>518.769000</ele>
        <time>2009-02-07T20:00:21Z</time>
      </trkpt>
      <trkpt lat="50.594083" lon="6.492006">
        <ele>518.288000</ele>
        <time>2009-02-07T20:00:30Z</time>
      </trkpt>
      <trkpt lat="50.593997" lon="6.492165">
        <ele>516.365000</ele>
        <time>2009-02-07T20:00:44Z</time>
      </trkpt>
      <trkpt lat="50.593819" lon="6.492472">
        <ele>516.846000</ele>
        <time>2009-02-07T20:01:12Z</time>
      </trkpt>
      <trkpt lat="50.593773" lon="6.492562">
        <ele>516.365000</ele>
        <time>2009-02-07T20:01:20Z</time>
      </trkpt>
      <trkpt lat="50.593653" lon="6.492762">
        <ele>517.327000</ele>
        <time>2009-02-07T20:01:38Z</time>
      </trkpt>
      <trkpt lat="50.593591" lon="6.492853">
        <ele>514.443000</ele>
        <time>2009-02-07T20:01:47Z</time>
      </trkpt>
      <trkpt lat="50.593575" lon="6.492883">
        <ele>514.443000</ele>
        <time>2009-02-07T20:01:50Z</time>
      </trkpt>
      <trkpt lat="50.593483" lon="6.493070">
        <ele>513.481000</ele>
        <time>2009-02-07T20:02:06Z</time>
      </trkpt>
      <trkpt lat="50.593541" lon="6.493290">
        <ele>513.481000</ele>
        <time>2009-02-07T20:02:22Z</time>
      </trkpt>
      <trkpt lat="50.593453" lon="6.493334">
        <ele>513.962000</ele>
        <time>2009-02-07T20:02:32Z</time>
      </trkpt>
      <trkpt lat="50.593421" lon="6.493345">
        <ele>513.962000</ele>
        <time>2009-02-07T20:02:35Z</time>
      </trkpt>
      <trkpt lat="50.593367" lon="6.493340">
        <ele>512.520000</ele>
        <time>2009-02-07T20:02:41Z</time>
      </trkpt>
      <trkpt lat="50.593252" lon="6.493304">
        <ele>511.559000</ele>
        <time>2009-02-07T20:02:53Z</time>
      </trkpt>
      <trkpt lat="50.593224" lon="6.493310">
        <ele>512.039000</ele>
        <time>2009-02-07T20:02:56Z</time>
      </trkpt>
      <trkpt lat="50.593173" lon="6.493343">
        <ele>511.559000</ele>
        <time>2009-02-07T20:03:02Z</time>
      </trkpt>
      <trkpt lat="50.593138" lon="6.493359">
        <ele>512.039000</ele>
        <time>2009-02-07T20:03:06Z</time>
      </trkpt>
      <trkpt lat="50.592979" lon="6.493466">
        <ele>511.078000</ele>
        <time>2009-02-07T20:03:25Z</time>
      </trkpt>
      <trkpt lat="50.592948" lon="6.493526">
        <ele>512.520000</ele>
        <time>2009-02-07T20:03:30Z</time>
      </trkpt>
      <trkpt lat="50.592804" lon="6.493742">
        <ele>512.520000</ele>
        <time>2009-02-07T20:03:51Z</time>
      </trkpt>
      <trkpt lat="50.592710" lon="6.493839">
        <ele>512.520000</ele>
        <time>2009-02-07T20:04:03Z</time>
      </trkpt>
      <trkpt lat="50.592610" lon="6.494010">
        <ele>512.039000</ele>
        <time>2009-02-07T20:04:19Z</time>
      </trkpt>
      <trkpt lat="50.592591" lon="6.494041">
        <ele>512.520000</ele>
        <time>2009-02-07T20:04:21Z</time>
      </trkpt>
      <trkpt lat="50.592578" lon="6.494107">
        <ele>511.559000</ele>
        <time>2009-02-07T20:04:26Z</time>
      </trkpt>
      <trkpt lat="50.592581" lon="6.494107">
        <ele>513.481000</ele>
        <time>2009-02-07T20:04:26Z</time>
      </trkpt>
      <trkpt lat="50.592583" lon="6.494107">
        <ele>510.597000</ele>
        <time>2009-02-07T20:04:27Z</time>
      </trkpt>
      <trkpt lat="50.592582" lon="6.494107">
        <ele>512.520000</ele>
        <time>2009-02-07T20:04:27Z</time>
      </trkpt>
      <trkpt lat="50.592577" lon="6.494126">
        <ele>509.155000</ele>
        <time>2009-02-07T20:04:28Z</time>
      </trkpt>
      <trkpt lat="50.592559" lon="6.494120">
        <ele>510.117000</ele>
        <time>2009-02-07T20:04:30Z</time>
      </trkpt>
      <trkpt lat="50.592568" lon="6.494090">
        <ele>506.752000</ele>
        <time>2009-02-07T20:04:32Z</time>
      </trkpt>
      <trkpt lat="50.592573" lon="6.494097">
        <ele>510.117000</ele>
        <time>2009-02-07T20:04:33Z</time>
      </trkpt>
      <trkpt lat="50.592573" lon="6.494098">
        <ele>507.714000</ele>
        <time>2009-02-07T20:04:33Z</time>
      </trkpt>
      <trkpt lat="50.592573" lon="6.494098">
        <ele>509.155000</ele>
        <time>2009-02-07T20:04:33Z</time>
      </trkpt>
      <trkpt lat="50.592445" lon="6.494126">
        <ele>509.636000</ele>
        <time>2009-02-07T20:04:47Z</time>
      </trkpt>
      <trkpt lat="50.592361" lon="6.494094">
        <ele>509.155000</ele>
        <time>2009-02-07T20:04:56Z</time>
      </trkpt>
      <trkpt lat="50.592150" lon="6.493981">
        <ele>510.597000</ele>
        <time>2009-02-07T20:05:20Z</time>
      </trkpt>
      <trkpt lat="50.591990" lon="6.493903">
        <ele>510.597000</ele>
        <time>2009-02-07T20:05:38Z</time>
      </trkpt>
      <trkpt lat="50.591823" lon="6.493836">
        <ele>513.001000</ele>
        <time>2009-02-07T20:05:56Z</time>
      </trkpt>
      <trkpt lat="50.591655" lon="6.493756">
        <ele>513.001000</ele>
        <time>2009-02-07T20:06:15Z</time>
      </trkpt>
      <trkpt lat="50.591470" lon="6.493634">
        <ele>515.885000</ele>
        <time>2009-02-07T20:06:36Z</time>
      </trkpt>
      <trkpt lat="50.591304" lon="6.493529">
        <ele>515.885000</ele>
        <time>2009-02-07T20:06:55Z</time>
      </trkpt>
      <trkpt lat="50.591136" lon="6.493452">
        <ele>517.327000</ele>
        <time>2009-02-07T20:07:14Z</time>
      </trkpt>
      <trkpt lat="50.590981" lon="6.493327">
        <ele>518.288000</ele>
        <time>2009-02-07T20:07:32Z</time>
      </trkpt>
      <trkpt lat="50.590940" lon="6.493321">
        <ele>517.807000</ele>
        <time>2009-02-07T20:07:37Z</time>
      </trkpt>
      <trkpt lat="50.590764" lon="6.493252">
        <ele>517.807000</ele>
        <time>2009-02-07T20:07:56Z</time>
      </trkpt>
      <trkpt lat="50.590627" lon="6.493201">
        <ele>517.327000</ele>
        <time>2009-02-07T20:08:11Z</time>
      </trkpt>
      <trkpt lat="50.590526" lon="6.493124">
        <ele>518.769000</ele>
        <time>2009-02-07T20:08:23Z</time>
      </trkpt>
      <trkpt lat="50.590488" lon="6.492924">
        <ele>518.769000</ele>
        <time>2009-02-07T20:08:37Z</time>
      </trkpt>
      <trkpt lat="50.590483" lon="6.492880">
        <ele>518.769000</ele>
        <time>2009-02-07T20:08:40Z</time>
      </trkpt>
      <trkpt lat="50.590463" lon="6.492818">
        <ele>518.288000</ele>
        <time>2009-02-07T20:08:45Z</time>
      </trkpt>
      <trkpt lat="50.590328" lon="6.492785">
        <ele>518.769000</ele>
        <time>2009-02-07T20:08:59Z</time>
      </trkpt>
      <trkpt lat="50.590292" lon="6.492799">
        <ele>518.288000</ele>
        <time>2009-02-07T20:09:03Z</time>
      </trkpt>
      <trkpt lat="50.590168" lon="6.492870">
        <ele>518.288000</ele>
        <time>2009-02-07T20:09:17Z</time>
      </trkpt>
      <trkpt lat="50.590083" lon="6.492904">
        <ele>518.769000</ele>
        <time>2009-02-07T20:09:26Z</time>
      </trkpt>
      <trkpt lat="50.590008" lon="6.492858">
        <ele>519.730000</ele>
        <time>2009-02-07T20:09:35Z</time>
      </trkpt>
      <trkpt lat="50.589930" lon="6.492881">
        <ele>520.691000</ele>
        <time>2009-02-07T20:09:43Z</time>
      </trkpt>
      <trkpt lat="50.589856" lon="6.492885">
        <ele>520.691000</ele>
        <time>2009-02-07T20:09:51Z</time>
      </trkpt>
      <trkpt lat="50.589822" lon="6.492878">
        <ele>520.691000</ele>
        <time>2009-02-07T20:09:55Z</time>
      </trkpt>
      <trkpt lat="50.589632" lon="6.492913">
        <ele>520.691000</ele>
        <time>2009-02-07T20:10:15Z</time>
      </trkpt>
      <trkpt lat="50.589543" lon="6.492937">
        <ele>521.653000</ele>
        <time>2009-02-07T20:10:25Z</time>
      </trkpt>
      <trkpt lat="50.589329" lon="6.492954">
        <ele>520.691000</ele>
        <time>2009-02-07T20:10:48Z</time>
      </trkpt>
      <trkpt lat="50.589241" lon="6.492986">
        <ele>520.691000</ele>
        <time>2009-02-07T20:10:57Z</time>
      </trkpt>
      <trkpt lat="50.589083" lon="6.493136">
        <ele>520.211000</ele>
        <time>2009-02-07T20:11:17Z</time>
      </trkpt>
      <trkpt lat="50.588914" lon="6.493294">
        <ele>519.730000</ele>
        <time>2009-02-07T20:11:38Z</time>
      </trkpt>
      <trkpt lat="50.588790" lon="6.493444">
        <ele>521.172000</ele>
        <time>2009-02-07T20:11:55Z</time>
      </trkpt>
      <trkpt lat="50.588689" lon="6.493521">
        <ele>521.172000</ele>
        <time>2009-02-07T20:12:07Z</time>
      </trkpt>
      <trkpt lat="50.588583" lon="6.493639">
        <ele>521.653000</ele>
        <time>2009-02-07T20:12:20Z</time>
      </trkpt>
      <trkpt lat="50.588594" lon="6.493644">
        <ele>521.653000</ele>
        <time>2009-02-07T20:12:22Z</time>
      </trkpt>
      <trkpt lat="50.588361" lon="6.493912">
        <ele>525.017000</ele>
        <time>2009-02-07T20:12:52Z</time>
      </trkpt>
      <trkpt lat="50.588360" lon="6.493924">
        <ele>524.536000</ele>
        <time>2009-02-07T20:12:53Z</time>
      </trkpt>
      <trkpt lat="50.588118" lon="6.494324">
        <ele>527.901000</ele>
        <time>2009-02-07T20:13:30Z</time>
      </trkpt>
      <trkpt lat="50.588017" lon="6.494407">
        <ele>530.304000</ele>
        <time>2009-02-07T20:13:42Z</time>
      </trkpt>
      <trkpt lat="50.587867" lon="6.494569">
        <ele>531.266000</ele>
        <time>2009-02-07T20:14:02Z</time>
      </trkpt>
      <trkpt lat="50.587599" lon="6.494910">
        <ele>531.746000</ele>
        <time>2009-02-07T20:14:38Z</time>
      </trkpt>
      <trkpt lat="50.587734" lon="6.495344">
        <ele>531.746000</ele>
        <time>2009-02-07T20:15:11Z</time>
      </trkpt>
      <trkpt lat="50.587904" lon="6.495667">
        <ele>530.304000</ele>
        <time>2009-02-07T20:15:39Z</time>
      </trkpt>
      <trkpt lat="50.587986" lon="6.495897">
        <ele>530.785000</ele>
        <time>2009-02-07T20:15:57Z</time>
      </trkpt>
      <trkpt lat="50.588095" lon="6.496143">
        <ele>530.304000</ele>
        <time>2009-02-07T20:16:18Z</time>
      </trkpt>
      <trkpt lat="50.588113" lon="6.496342">
        <ele>530.304000</ele>
        <time>2009-02-07T20:16:31Z</time>
      </trkpt>
      <trkpt lat="50.588127" lon="6.496346">
        <ele>530.304000</ele>
        <time>2009-02-07T20:16:33Z</time>
      </trkpt>
      <trkpt lat="50.588180" lon="6.496345">
        <ele>530.785000</ele>
        <time>2009-02-07T20:16:38Z</time>
      </trkpt>
      <trkpt lat="50.588226" lon="6.496411">
        <ele>532.227000</ele>
        <time>2009-02-07T20:16:45Z</time>
      </trkpt>
      <trkpt lat="50.588240" lon="6.496453">
        <ele>532.708000</ele>
        <time>2009-02-07T20:16:48Z</time>
      </trkpt>
      <trkpt lat="50.588233" lon="6.496485">
        <ele>535.592000</ele>
        <time>2009-02-07T20:16:50Z</time>
      </trkpt>
      <trkpt lat="50.588235" lon="6.496485">
        <ele>536.072000</ele>
        <time>2009-02-07T20:16:51Z</time>
      </trkpt>
      <trkpt lat="50.588237" lon="6.496441">
        <ele>535.111000</ele>
        <time>2009-02-07T20:16:54Z</time>
      </trkpt>
      <trkpt lat="50.588244" lon="6.496440">
        <ele>538.956000</ele>
        <time>2009-02-07T20:16:54Z</time>
      </trkpt>
      <trkpt lat="50.588211" lon="6.496385">
        <ele>541.840000</ele>
        <time>2009-02-07T20:16:59Z</time>
      </trkpt>
      <trkpt lat="50.588216" lon="6.496386">
        <ele>541.840000</ele>
        <time>2009-02-07T20:17:00Z</time>
      </trkpt>
      <trkpt lat="50.588212" lon="6.496406">
        <ele>543.282000</ele>
        <time>2009-02-07T20:17:01Z</time>
      </trkpt>
      <trkpt lat="50.588226" lon="6.496403">
        <ele>546.166000</ele>
        <time>2009-02-07T20:17:03Z</time>
      </trkpt>
      <trkpt lat="50.588255" lon="6.496468">
        <ele>544.244000</ele>
        <time>2009-02-07T20:17:08Z</time>
      </trkpt>
      <trkpt lat="50.588246" lon="6.496483">
        <ele>548.089000</ele>
        <time>2009-02-07T20:17:10Z</time>
      </trkpt>
      <trkpt lat="50.588231" lon="6.496469">
        <ele>544.724000</ele>
        <time>2009-02-07T20:17:12Z</time>
      </trkpt>
      <trkpt lat="50.588227" lon="6.496474">
        <ele>547.608000</ele>
        <time>2009-02-07T20:17:12Z</time>
      </trkpt>
      <trkpt lat="50.588212" lon="6.496455">
        <ele>544.244000</ele>
        <time>2009-02-07T20:17:14Z</time>
      </trkpt>
      <trkpt lat="50.588215" lon="6.496455">
        <ele>542.802000</ele>
        <time>2009-02-07T20:17:14Z</time>
      </trkpt>
      <trkpt lat="50.588229" lon="6.496472">
        <ele>542.321000</ele>
        <time>2009-02-07T20:17:16Z</time>
      </trkpt>
      <trkpt lat="50.588224" lon="6.496472">
        <ele>540.879000</ele>
        <time>2009-02-07T20:17:17Z</time>
      </trkpt>
      <trkpt lat="50.588236" lon="6.496462">
        <ele>537.514000</ele>
        <time>2009-02-07T20:17:18Z</time>
      </trkpt>
      <trkpt lat="50.588229" lon="6.496501">
        <ele>536.072000</ele>
        <time>2009-02-07T20:17:21Z</time>
      </trkpt>
      <trkpt lat="50.588232" lon="6.496493">
        <ele>532.708000</ele>
        <time>2009-02-07T20:17:22Z</time>
      </trkpt>
      <trkpt lat="50.588215" lon="6.496472">
        <ele>529.343000</ele>
        <time>2009-02-07T20:17:24Z</time>
      </trkpt>
      <trkpt lat="50.588174" lon="6.496374">
        <ele>527.901000</ele>
        <time>2009-02-07T20:17:32Z</time>
      </trkpt>
      <trkpt lat="50.588132" lon="6.496389">
        <ele>528.382000</ele>
        <time>2009-02-07T20:17:36Z</time>
      </trkpt>
      <trkpt lat="50.588131" lon="6.496389">
        <ele>526.940000</ele>
        <time>2009-02-07T20:17:37Z</time>
      </trkpt>
      <trkpt lat="50.588142" lon="6.496268">
        <ele>528.382000</ele>
        <time>2009-02-07T20:17:45Z</time>
      </trkpt>
      <trkpt lat="50.588015" lon="6.495937">
        <ele>527.901000</ele>
        <time>2009-02-07T20:18:11Z</time>
      </trkpt>
      <trkpt lat="50.587901" lon="6.495695">
        <ele>528.863000</ele>
        <time>2009-02-07T20:18:31Z</time>
      </trkpt>
      <trkpt lat="50.587702" lon="6.495306">
        <ele>528.863000</ele>
        <time>2009-02-07T20:19:05Z</time>
      </trkpt>
      <trkpt lat="50.587600" lon="6.495046">
        <ele>529.343000</ele>
        <time>2009-02-07T20:19:26Z</time>
      </trkpt>
      <trkpt lat="50.587539" lon="6.494875">
        <ele>528.382000</ele>
        <time>2009-02-07T20:19:39Z</time>
      </trkpt>
      <trkpt lat="50.587499" lon="6.494836">
        <ele>527.901000</ele>
        <time>2009-02-07T20:19:44Z</time>
      </trkpt>
      <trkpt lat="50.587419" lon="6.494811">
        <ele>526.940000</ele>
        <time>2009-02-07T20:19:53Z</time>
      </trkpt>
      <trkpt lat="50.587300" lon="6.494918">
        <ele>525.017000</ele>
        <time>2009-02-07T20:20:07Z</time>
      </trkpt>
      <trkpt lat="50.587117" lon="6.495107">
        <ele>522.133000</ele>
        <time>2009-02-07T20:20:31Z</time>
      </trkpt>
      <trkpt lat="50.586990" lon="6.495270">
        <ele>518.769000</ele>
        <time>2009-02-07T20:20:48Z</time>
      </trkpt>
      <trkpt lat="50.586916" lon="6.495495">
        <ele>517.327000</ele>
        <time>2009-02-07T20:21:05Z</time>
      </trkpt>
      <trkpt lat="50.586784" lon="6.495732">
        <ele>514.443000</ele>
        <time>2009-02-07T20:21:26Z</time>
      </trkpt>
      <trkpt lat="50.586676" lon="6.495840">
        <ele>511.078000</ele>
        <time>2009-02-07T20:21:40Z</time>
      </trkpt>
      <trkpt lat="50.586449" lon="6.495904">
        <ele>508.194000</ele>
        <time>2009-02-07T20:22:04Z</time>
      </trkpt>
      <trkpt lat="50.586394" lon="6.495948">
        <ele>506.752000</ele>
        <time>2009-02-07T20:22:11Z</time>
      </trkpt>
      <trkpt lat="50.586277" lon="6.496029">
        <ele>503.387000</ele>
        <time>2009-02-07T20:22:25Z</time>
      </trkpt>
      <trkpt lat="50.586137" lon="6.496221">
        <ele>502.426000</ele>
        <time>2009-02-07T20:22:44Z</time>
      </trkpt>
      <trkpt lat="50.586111" lon="6.496206">
        <ele>501.465000</ele>
        <time>2009-02-07T20:22:47Z</time>
      </trkpt>
      <trkpt lat="50.586015" lon="6.496021">
        <ele>498.100000</ele>
        <time>2009-02-07T20:23:03Z</time>
      </trkpt>
      <trkpt lat="50.585949" lon="6.495896">
        <ele>497.139000</ele>
        <time>2009-02-07T20:23:14Z</time>
      </trkpt>
      <trkpt lat="50.585897" lon="6.495895">
        <ele>495.216000</ele>
        <time>2009-02-07T20:23:20Z</time>
      </trkpt>
      <trkpt lat="50.585770" lon="6.495813">
        <ele>492.813000</ele>
        <time>2009-02-07T20:23:35Z</time>
      </trkpt>
      <trkpt lat="50.585694" lon="6.495856">
        <ele>491.371000</ele>
        <time>2009-02-07T20:23:43Z</time>
      </trkpt>
      <trkpt lat="50.585662" lon="6.495861">
        <ele>490.890000</ele>
        <time>2009-02-07T20:23:47Z</time>
      </trkpt>
      <trkpt lat="50.585606" lon="6.495860">
        <ele>490.890000</ele>
        <time>2009-02-07T20:23:53Z</time>
      </trkpt>
      <trkpt lat="50.585600" lon="6.495899">
        <ele>488.487000</ele>
        <time>2009-02-07T20:23:55Z</time>
      </trkpt>
      <trkpt lat="50.585544" lon="6.495847">
        <ele>485.603000</ele>
        <time>2009-02-07T20:24:02Z</time>
      </trkpt>
      <trkpt lat="50.585504" lon="6.495817">
        <ele>483.200000</ele>
        <time>2009-02-07T20:24:07Z</time>
      </trkpt>
      <trkpt lat="50.585370" lon="6.495765">
        <ele>480.316000</ele>
        <time>2009-02-07T20:24:22Z</time>
      </trkpt>
      <trkpt lat="50.585326" lon="6.495730">
        <ele>477.432000</ele>
        <time>2009-02-07T20:24:27Z</time>
      </trkpt>
      <trkpt lat="50.585101" lon="6.495723">
        <ele>473.587000</ele>
        <time>2009-02-07T20:24:51Z</time>
      </trkpt>
      <trkpt lat="50.585009" lon="6.495747">
        <ele>470.703000</ele>
        <time>2009-02-07T20:25:01Z</time>
      </trkpt>
      <trkpt lat="50.584900" lon="6.495709">
        <ele>466.857000</ele>
        <time>2009-02-07T20:25:13Z</time>
      </trkpt>
      <trkpt lat="50.584718" lon="6.495693">
        <ele>463.493000</ele>
        <time>2009-02-07T20:25:32Z</time>
      </trkpt>
      <trkpt lat="50.584645" lon="6.495564">
        <ele>460.609000</ele>
        <time>2009-02-07T20:25:44Z</time>
      </trkpt>
      <trkpt lat="50.584316" lon="6.495769">
        <ele>456.764000</ele>
        <time>2009-02-07T20:26:21Z</time>
      </trkpt>
      <trkpt lat="50.584206" lon="6.495749">
        <ele>453.880000</ele>
        <time>2009-02-07T20:26:33Z</time>
      </trkpt>
      <trkpt lat="50.584050" lon="6.495772">
        <ele>450.515000</ele>
        <time>2009-02-07T20:26:50Z</time>
      </trkpt>
      <trkpt lat="50.583929" lon="6.495733">
        <ele>447.150000</ele>
        <time>2009-02-07T20:27:03Z</time>
      </trkpt>
      <trkpt lat="50.583778" lon="6.495608">
        <ele>443.786000</ele>
        <time>2009-02-07T20:27:21Z</time>
      </trkpt>
      <trkpt lat="50.583654" lon="6.495579">
        <ele>440.902000</ele>
        <time>2009-02-07T20:27:34Z</time>
      </trkpt>
      <trkpt lat="50.583445" lon="6.495578">
        <ele>438.018000</ele>
        <time>2009-02-07T20:27:57Z</time>
      </trkpt>
      <trkpt lat="50.583336" lon="6.495598">
        <ele>434.653000</ele>
        <time>2009-02-07T20:28:08Z</time>
      </trkpt>
      <trkpt lat="50.583158" lon="6.495661">
        <ele>431.769000</ele>
        <time>2009-02-07T20:28:28Z</time>
      </trkpt>
      <trkpt lat="50.583078" lon="6.495694">
        <ele>428.885000</ele>
        <time>2009-02-07T20:28:36Z</time>
      </trkpt>
      <trkpt lat="50.582881" lon="6.495851">
        <ele>426.482000</ele>
        <time>2009-02-07T20:29:00Z</time>
      </trkpt>
      <trkpt lat="50.582704" lon="6.495914">
        <ele>423.598000</ele>
        <time>2009-02-07T20:29:19Z</time>
      </trkpt>
      <trkpt lat="50.582564" lon="6.496138">
        <ele>420.714000</ele>
        <time>2009-02-07T20:29:41Z</time>
      </trkpt>
      <trkpt lat="50.582459" lon="6.496437">
        <ele>417.350000</ele>
        <time>2009-02-07T20:30:04Z</time>
      </trkpt>
      <trkpt lat="50.582342" lon="6.496764">
        <ele>414.465000</ele>
        <time>2009-02-07T20:30:29Z</time>
      </trkpt>
      <trkpt lat="50.582198" lon="6.497169">
        <ele>411.582000</ele>
        <time>2009-02-07T20:31:00Z</time>
      </trkpt>
      <trkpt lat="50.582154" lon="6.497340">
        <ele>409.178000</ele>
        <time>2009-02-07T20:31:13Z</time>
      </trkpt>
      <trkpt lat="50.582003" lon="6.497648">
        <ele>408.217000</ele>
        <time>2009-02-07T20:31:39Z</time>
      </trkpt>
      <trkpt lat="50.581883" lon="6.497915">
        <ele>406.294000</ele>
        <time>2009-02-07T20:32:01Z</time>
      </trkpt>
      <trkpt lat="50.581730" lon="6.498050">
        <ele>403.410000</ele>
        <time>2009-02-07T20:32:20Z</time>
      </trkpt>
      <trkpt lat="50.581599" lon="6.498119">
        <ele>400.046000</ele>
        <time>2009-02-07T20:32:35Z</time>
      </trkpt>
      <trkpt lat="50.581396" lon="6.498186">
        <ele>397.642000</ele>
        <time>2009-02-07T20:32:57Z</time>
      </trkpt>
      <trkpt lat="50.581172" lon="6.498279">
        <ele>395.720000</ele>
        <time>2009-02-07T20:33:21Z</time>
      </trkpt>
      <trkpt lat="50.581024" lon="6.498487">
        <ele>395.720000</ele>
        <time>2009-02-07T20:33:42Z</time>
      </trkpt>
      <trkpt lat="50.580861" lon="6.498143">
        <ele>394.759000</ele>
        <time>2009-02-07T20:34:11Z</time>
      </trkpt>
      <trkpt lat="50.580647" lon="6.497394">
        <ele>392.355000</ele>
        <time>2009-02-07T20:35:07Z</time>
      </trkpt>
      <trkpt lat="50.580589" lon="6.497322">
        <ele>391.394000</ele>
        <time>2009-02-07T20:35:15Z</time>
      </trkpt>
      <trkpt lat="50.580384" lon="6.497319">
        <ele>389.471000</ele>
        <time>2009-02-07T20:35:36Z</time>
      </trkpt>
      <trkpt lat="50.580069" lon="6.497604">
        <ele>385.626000</ele>
        <time>2009-02-07T20:36:15Z</time>
      </trkpt>
      <trkpt lat="50.579853" lon="6.497635">
        <ele>384.184000</ele>
        <time>2009-02-07T20:36:38Z</time>
      </trkpt>
      <trkpt lat="50.579492" lon="6.497476">
        <ele>381.300000</ele>
        <time>2009-02-07T20:37:18Z</time>
      </trkpt>
      <trkpt lat="50.579342" lon="6.497487">
        <ele>380.819000</ele>
        <time>2009-02-07T20:37:34Z</time>
      </trkpt>
      <trkpt lat="50.579199" lon="6.497509">
        <ele>382.261000</ele>
        <time>2009-02-07T20:37:49Z</time>
      </trkpt>
      <trkpt lat="50.579140" lon="6.497538">
        <ele>380.819000</ele>
        <time>2009-02-07T20:37:56Z</time>
      </trkpt>
      <trkpt lat="50.579031" lon="6.497549">
        <ele>379.858000</ele>
        <time>2009-02-07T20:38:08Z</time>
      </trkpt>
      <trkpt lat="50.578979" lon="6.497620">
        <ele>378.897000</ele>
        <time>2009-02-07T20:38:15Z</time>
      </trkpt>
      <trkpt lat="50.578929" lon="6.497635">
        <ele>377.935000</ele>
        <time>2009-02-07T20:38:20Z</time>
      </trkpt>
      <trkpt lat="50.578833" lon="6.497650">
        <ele>376.974000</ele>
        <time>2009-02-07T20:38:31Z</time>
      </trkpt>
      <trkpt lat="50.578679" lon="6.497733">
        <ele>375.532000</ele>
        <time>2009-02-07T20:38:48Z</time>
      </trkpt>
      <trkpt lat="50.578663" lon="6.497863">
        <ele>375.532000</ele>
        <time>2009-02-07T20:38:57Z</time>
      </trkpt>
      <trkpt lat="50.578444" lon="6.498285">
        <ele>373.609000</ele>
        <time>2009-02-07T20:39:34Z</time>
      </trkpt>
      <trkpt lat="50.578415" lon="6.498317">
        <ele>373.609000</ele>
        <time>2009-02-07T20:39:37Z</time>
      </trkpt>
      <trkpt lat="50.578403" lon="6.498319">
        <ele>373.129000</ele>
        <time>2009-02-07T20:39:39Z</time>
      </trkpt>
      <trkpt lat="50.578333" lon="6.498407">
        <ele>371.687000</ele>
        <time>2009-02-07T20:39:48Z</time>
      </trkpt>
      <trkpt lat="50.578018" lon="6.498554">
        <ele>368.803000</ele>
        <time>2009-02-07T20:40:23Z</time>
      </trkpt>
      <trkpt lat="50.577633" lon="6.498933">
        <ele>366.400000</ele>
        <time>2009-02-07T20:41:12Z</time>
      </trkpt>
      <trkpt lat="50.577458" lon="6.499124">
        <ele>367.361000</ele>
        <time>2009-02-07T20:41:34Z</time>
      </trkpt>
      <trkpt lat="50.577417" lon="6.499154">
        <ele>366.400000</ele>
        <time>2009-02-07T20:41:39Z</time>
      </trkpt>
      <trkpt lat="50.577217" lon="6.499003">
        <ele>365.919000</ele>
        <time>2009-02-07T20:42:03Z</time>
      </trkpt>
      <trkpt lat="50.577043" lon="6.499006">
        <ele>365.438000</ele>
        <time>2009-02-07T20:42:21Z</time>
      </trkpt>
      <trkpt lat="50.576923" lon="6.498922">
        <ele>364.958000</ele>
        <time>2009-02-07T20:42:35Z</time>
      </trkpt>
      <trkpt lat="50.576731" lon="6.498925">
        <ele>365.438000</ele>
        <time>2009-02-07T20:42:55Z</time>
      </trkpt>
      <trkpt lat="50.576584" lon="6.498992">
        <ele>366.400000</ele>
        <time>2009-02-07T20:43:12Z</time>
      </trkpt>
      <trkpt lat="50.576531" lon="6.499031">
        <ele>367.842000</ele>
        <time>2009-02-07T20:43:18Z</time>
      </trkpt>
      <trkpt lat="50.576464" lon="6.499213">
        <ele>371.206000</ele>
        <time>2009-02-07T20:43:32Z</time>
      </trkpt>
      <trkpt lat="50.576199" lon="6.499208">
        <ele>370.245000</ele>
        <time>2009-02-07T20:44:00Z</time>
      </trkpt>
      <trkpt lat="50.575683" lon="6.499413">
        <ele>369.764000</ele>
        <time>2009-02-07T20:44:57Z</time>
      </trkpt>
      <trkpt lat="50.575607" lon="6.499484">
        <ele>370.726000</ele>
        <time>2009-02-07T20:45:06Z</time>
      </trkpt>
      <trkpt lat="50.575497" lon="6.499643">
        <ele>372.648000</ele>
        <time>2009-02-07T20:45:22Z</time>
      </trkpt>
      <trkpt lat="50.575050" lon="6.499976">
        <ele>371.687000</ele>
        <time>2009-02-07T20:46:15Z</time>
      </trkpt>
      <trkpt lat="50.574853" lon="6.500075">
        <ele>371.206000</ele>
        <time>2009-02-07T20:46:37Z</time>
      </trkpt>
      <trkpt lat="50.574729" lon="6.500185">
        <ele>371.206000</ele>
        <time>2009-02-07T20:46:52Z</time>
      </trkpt>
      <trkpt lat="50.574441" lon="6.500393">
        <ele>370.726000</ele>
        <time>2009-02-07T20:47:26Z</time>
      </trkpt>
      <trkpt lat="50.574224" lon="6.500607">
        <ele>368.322000</ele>
        <time>2009-02-07T20:47:53Z</time>
      </trkpt>
      <trkpt lat="50.574193" lon="6.500580">
        <ele>367.842000</ele>
        <time>2009-02-07T20:47:57Z</time>
      </trkpt>
      <trkpt lat="50.574126" lon="6.500550">
        <ele>365.919000</ele>
        <time>2009-02-07T20:48:04Z</time>
      </trkpt>
      <trkpt lat="50.574023" lon="6.500565">
        <ele>363.996000</ele>
        <time>2009-02-07T20:48:15Z</time>
      </trkpt>
      <trkpt lat="50.574011" lon="6.500551">
        <ele>363.996000</ele>
        <time>2009-02-07T20:48:17Z</time>
      </trkpt>
      <trkpt lat="50.573914" lon="6.500671">
        <ele>362.074000</ele>
        <time>2009-02-07T20:48:30Z</time>
      </trkpt>
      <trkpt lat="50.573773" lon="6.500701">
        <ele>361.112000</ele>
        <time>2009-02-07T20:48:45Z</time>
      </trkpt>
      <trkpt lat="50.573740" lon="6.500698">
        <ele>360.151000</ele>
        <time>2009-02-07T20:48:49Z</time>
      </trkpt>
      <trkpt lat="50.573609" lon="6.500632">
        <ele>359.670000</ele>
        <time>2009-02-07T20:49:03Z</time>
      </trkpt>
      <trkpt lat="50.573476" lon="6.500790">
        <ele>357.748000</ele>
        <time>2009-02-07T20:49:21Z</time>
      </trkpt>
      <trkpt lat="50.573427" lon="6.500822">
        <ele>356.786000</ele>
        <time>2009-02-07T20:49:27Z</time>
      </trkpt>
      <trkpt lat="50.573309" lon="6.500793">
        <ele>356.306000</ele>
        <time>2009-02-07T20:49:39Z</time>
      </trkpt>
      <trkpt lat="50.573213" lon="6.500904">
        <ele>353.422000</ele>
        <time>2009-02-07T20:49:52Z</time>
      </trkpt>
      <trkpt lat="50.573057" lon="6.501117">
        <ele>350.057000</ele>
        <time>2009-02-07T20:50:14Z</time>
      </trkpt>
      <trkpt lat="50.573031" lon="6.501106">
        <ele>350.057000</ele>
        <time>2009-02-07T20:50:17Z</time>
      </trkpt>
      <trkpt lat="50.573004" lon="6.501113">
        <ele>350.057000</ele>
        <time>2009-02-07T20:50:20Z</time>
      </trkpt>
      <trkpt lat="50.572914" lon="6.501151">
        <ele>349.096000</ele>
        <time>2009-02-07T20:50:30Z</time>
      </trkpt>
      <trkpt lat="50.572870" lon="6.501164">
        <ele>348.615000</ele>
        <time>2009-02-07T20:50:34Z</time>
      </trkpt>
      <trkpt lat="50.572613" lon="6.501057">
        <ele>345.731000</ele>
        <time>2009-02-07T20:51:03Z</time>
      </trkpt>
      <trkpt lat="50.572397" lon="6.501083">
        <ele>345.251000</ele>
        <time>2009-02-07T20:51:26Z</time>
      </trkpt>
      <trkpt lat="50.572269" lon="6.500993">
        <ele>345.731000</ele>
        <time>2009-02-07T20:51:41Z</time>
      </trkpt>
      <trkpt lat="50.572174" lon="6.501258">
        <ele>345.251000</ele>
        <time>2009-02-07T20:52:01Z</time>
      </trkpt>
      <trkpt lat="50.571978" lon="6.501614">
        <ele>345.731000</ele>
        <time>2009-02-07T20:52:33Z</time>
      </trkpt>
      <trkpt lat="50.571716" lon="6.502213">
        <ele>347.173000</ele>
        <time>2009-02-07T20:53:22Z</time>
      </trkpt>
      <trkpt lat="50.571517" lon="6.502523">
        <ele>347.173000</ele>
        <time>2009-02-07T20:53:52Z</time>
      </trkpt>
      <trkpt lat="50.571511" lon="6.502654">
        <ele>348.615000</ele>
        <time>2009-02-07T20:54:01Z</time>
      </trkpt>
      <trkpt lat="50.571478" lon="6.502949">
        <ele>347.654000</ele>
        <time>2009-02-07T20:54:21Z</time>
      </trkpt>
      <trkpt lat="50.571390" lon="6.503268">
        <ele>347.654000</ele>
        <time>2009-02-07T20:54:45Z</time>
      </trkpt>
      <trkpt lat="50.571293" lon="6.503493">
        <ele>347.654000</ele>
        <time>2009-02-07T20:55:03Z</time>
      </trkpt>
      <trkpt lat="50.571268" lon="6.503534">
        <ele>348.135000</ele>
        <time>2009-02-07T20:55:07Z</time>
      </trkpt>
      <trkpt lat="50.571197" lon="6.503595">
        <ele>348.615000</ele>
        <time>2009-02-07T20:55:15Z</time>
      </trkpt>
      <trkpt lat="50.571203" lon="6.503682">
        <ele>348.615000</ele>
        <time>2009-02-07T20:55:21Z</time>
      </trkpt>
      <trkpt lat="50.571086" lon="6.503662">
        <ele>349.577000</ele>
        <time>2009-02-07T20:55:34Z</time>
      </trkpt>
    </trkseg>
  </trk>

</gpx>
